<?xml version="1.0" encoding="UTF-8" standalone="no" ?>
<gpx xmlns="http://www.topografix.com/GPX/1/1" xmlns:xsi="http://www.w3.org/2001/XMLSchema-instance" xsi:schemaLocation="http://www.topografix.com/GPX/1/1 http://www.topografix.com/GPX/1/1/gpx.xsd" version="1.1" creator="VisuGPX - https://www.visugpx.com">
  <metadata>
    <name>CESTAYROLSOCT-19-25 10:56:08</name>
  </metadata>
  <trk>
    <name><![CDATA[OCT-19-25 10:56:08]]></name>
    <extensions>
      <line xmlns="http://www.topografix.com/GPX/gpx_style/0/2">
        <color>0000FF</color>
        <width>4</width>
      </line>
    </extensions>
    <trkseg>
      <trkpt lat="43.98016" lon="1.98027">
        <ele>270.27</ele>
        <time>2025-10-19T06:42:26Z</time>
      </trkpt>
      <trkpt lat="43.98003" lon="1.98056">
        <ele>255.85</ele>
        <time>2025-10-19T06:43:04Z</time>
      </trkpt>
      <trkpt lat="43.97998" lon="1.9807">
        <ele>252.96</ele>
        <time>2025-10-19T06:43:15Z</time>
      </trkpt>
      <trkpt lat="43.97999" lon="1.98091">
        <ele>249.6</ele>
        <time>2025-10-19T06:43:41Z</time>
      </trkpt>
      <trkpt lat="43.97995" lon="1.98108">
        <ele>248.64</ele>
        <time>2025-10-19T06:43:49Z</time>
      </trkpt>
      <trkpt lat="43.97992" lon="1.98125">
        <ele>249.12</ele>
        <time>2025-10-19T06:43:57Z</time>
      </trkpt>
      <trkpt lat="43.97993" lon="1.98141">
        <ele>249.12</ele>
        <time>2025-10-19T06:44:05Z</time>
      </trkpt>
      <trkpt lat="43.97993" lon="1.98154">
        <ele>250.56</ele>
        <time>2025-10-19T06:44:13Z</time>
      </trkpt>
      <trkpt lat="43.97992" lon="1.98169">
        <ele>254.41</ele>
        <time>2025-10-19T06:44:22Z</time>
      </trkpt>
      <trkpt lat="43.97992" lon="1.98184">
        <ele>256.33</ele>
        <time>2025-10-19T06:44:30Z</time>
      </trkpt>
      <trkpt lat="43.97992" lon="1.98197">
        <ele>257.77</ele>
        <time>2025-10-19T06:44:38Z</time>
      </trkpt>
      <trkpt lat="43.97995" lon="1.98214">
        <ele>254.41</ele>
        <time>2025-10-19T06:44:48Z</time>
      </trkpt>
      <trkpt lat="43.97996" lon="1.98232">
        <ele>255.37</ele>
        <time>2025-10-19T06:44:59Z</time>
      </trkpt>
      <trkpt lat="43.97997" lon="1.98246">
        <ele>255.37</ele>
        <time>2025-10-19T06:45:07Z</time>
      </trkpt>
      <trkpt lat="43.98003" lon="1.9826">
        <ele>255.37</ele>
        <time>2025-10-19T06:45:17Z</time>
      </trkpt>
      <trkpt lat="43.98011" lon="1.98273">
        <ele>253.93</ele>
        <time>2025-10-19T06:45:26Z</time>
      </trkpt>
      <trkpt lat="43.98017" lon="1.98285">
        <ele>252.48</ele>
        <time>2025-10-19T06:45:34Z</time>
      </trkpt>
      <trkpt lat="43.98022" lon="1.98296">
        <ele>250.08</ele>
        <time>2025-10-19T06:45:42Z</time>
      </trkpt>
      <trkpt lat="43.98028" lon="1.98307">
        <ele>250.08</ele>
        <time>2025-10-19T06:45:50Z</time>
      </trkpt>
      <trkpt lat="43.98034" lon="1.98318">
        <ele>249.6</ele>
        <time>2025-10-19T06:45:58Z</time>
      </trkpt>
      <trkpt lat="43.9804" lon="1.9833">
        <ele>248.64</ele>
        <time>2025-10-19T06:46:08Z</time>
      </trkpt>
      <trkpt lat="43.98046" lon="1.9834">
        <ele>248.16</ele>
        <time>2025-10-19T06:46:16Z</time>
      </trkpt>
      <trkpt lat="43.98053" lon="1.98354">
        <ele>246.23</ele>
        <time>2025-10-19T06:46:25Z</time>
      </trkpt>
      <trkpt lat="43.98058" lon="1.98367">
        <ele>244.31</ele>
        <time>2025-10-19T06:46:34Z</time>
      </trkpt>
      <trkpt lat="43.98064" lon="1.98381">
        <ele>244.79</ele>
        <time>2025-10-19T06:46:54Z</time>
      </trkpt>
      <trkpt lat="43.98071" lon="1.98395">
        <ele>246.23</ele>
        <time>2025-10-19T06:47:04Z</time>
      </trkpt>
      <trkpt lat="43.98078" lon="1.98412">
        <ele>245.75</ele>
        <time>2025-10-19T06:47:13Z</time>
      </trkpt>
      <trkpt lat="43.98086" lon="1.98423">
        <ele>243.83</ele>
        <time>2025-10-19T06:47:23Z</time>
      </trkpt>
      <trkpt lat="43.98094" lon="1.98436">
        <ele>241.91</ele>
        <time>2025-10-19T06:47:32Z</time>
      </trkpt>
      <trkpt lat="43.98103" lon="1.98443">
        <ele>240.47</ele>
        <time>2025-10-19T06:47:41Z</time>
      </trkpt>
      <trkpt lat="43.98114" lon="1.98451">
        <ele>242.87</ele>
        <time>2025-10-19T06:47:59Z</time>
      </trkpt>
      <trkpt lat="43.9813" lon="1.98457">
        <ele>243.83</ele>
        <time>2025-10-19T06:48:11Z</time>
      </trkpt>
      <trkpt lat="43.98141" lon="1.98467">
        <ele>244.31</ele>
        <time>2025-10-19T06:48:21Z</time>
      </trkpt>
      <trkpt lat="43.98147" lon="1.9848">
        <ele>241.91</ele>
        <time>2025-10-19T06:48:33Z</time>
      </trkpt>
      <trkpt lat="43.98148" lon="1.98494">
        <ele>239.99</ele>
        <time>2025-10-19T06:48:41Z</time>
      </trkpt>
      <trkpt lat="43.98151" lon="1.98506">
        <ele>236.62</ele>
        <time>2025-10-19T06:49:09Z</time>
      </trkpt>
      <trkpt lat="43.98154" lon="1.98529">
        <ele>236.62</ele>
        <time>2025-10-19T06:49:19Z</time>
      </trkpt>
      <trkpt lat="43.9815" lon="1.98548">
        <ele>240.95</ele>
        <time>2025-10-19T06:49:34Z</time>
      </trkpt>
      <trkpt lat="43.98152" lon="1.98564">
        <ele>240.95</ele>
        <time>2025-10-19T06:49:49Z</time>
      </trkpt>
      <trkpt lat="43.98157" lon="1.98579">
        <ele>241.43</ele>
        <time>2025-10-19T06:49:58Z</time>
      </trkpt>
      <trkpt lat="43.98167" lon="1.98589">
        <ele>241.43</ele>
        <time>2025-10-19T06:50:09Z</time>
      </trkpt>
      <trkpt lat="43.98178" lon="1.98595">
        <ele>242.39</ele>
        <time>2025-10-19T06:50:20Z</time>
      </trkpt>
      <trkpt lat="43.9819" lon="1.98603">
        <ele>241.91</ele>
        <time>2025-10-19T06:50:32Z</time>
      </trkpt>
      <trkpt lat="43.982" lon="1.98609">
        <ele>242.87</ele>
        <time>2025-10-19T06:50:42Z</time>
      </trkpt>
      <trkpt lat="43.98212" lon="1.98618">
        <ele>242.87</ele>
        <time>2025-10-19T06:50:55Z</time>
      </trkpt>
      <trkpt lat="43.98222" lon="1.98632">
        <ele>243.35</ele>
        <time>2025-10-19T06:51:08Z</time>
      </trkpt>
      <trkpt lat="43.98232" lon="1.98645">
        <ele>242.39</ele>
        <time>2025-10-19T06:51:21Z</time>
      </trkpt>
      <trkpt lat="43.98243" lon="1.98655">
        <ele>240.95</ele>
        <time>2025-10-19T06:51:33Z</time>
      </trkpt>
      <trkpt lat="43.98256" lon="1.98666">
        <ele>242.39</ele>
        <time>2025-10-19T06:51:47Z</time>
      </trkpt>
      <trkpt lat="43.98269" lon="1.98679">
        <ele>242.87</ele>
        <time>2025-10-19T06:52:00Z</time>
      </trkpt>
      <trkpt lat="43.98279" lon="1.98693">
        <ele>245.27</ele>
        <time>2025-10-19T06:52:17Z</time>
      </trkpt>
      <trkpt lat="43.98292" lon="1.9871">
        <ele>247.2</ele>
        <time>2025-10-19T06:52:33Z</time>
      </trkpt>
      <trkpt lat="43.98301" lon="1.98728">
        <ele>247.68</ele>
        <time>2025-10-19T06:52:46Z</time>
      </trkpt>
      <trkpt lat="43.98311" lon="1.98745">
        <ele>249.12</ele>
        <time>2025-10-19T06:53:01Z</time>
      </trkpt>
      <trkpt lat="43.9832" lon="1.9876">
        <ele>248.16</ele>
        <time>2025-10-19T06:53:14Z</time>
      </trkpt>
      <trkpt lat="43.9833" lon="1.98773">
        <ele>248.16</ele>
        <time>2025-10-19T06:53:27Z</time>
      </trkpt>
      <trkpt lat="43.98343" lon="1.98785">
        <ele>247.2</ele>
        <time>2025-10-19T06:53:42Z</time>
      </trkpt>
      <trkpt lat="43.98356" lon="1.98798">
        <ele>246.72</ele>
        <time>2025-10-19T06:53:58Z</time>
      </trkpt>
      <trkpt lat="43.9837" lon="1.9881">
        <ele>245.27</ele>
        <time>2025-10-19T06:54:12Z</time>
      </trkpt>
      <trkpt lat="43.98381" lon="1.98822">
        <ele>248.16</ele>
        <time>2025-10-19T06:54:25Z</time>
      </trkpt>
      <trkpt lat="43.9839" lon="1.98835">
        <ele>248.16</ele>
        <time>2025-10-19T06:54:47Z</time>
      </trkpt>
      <trkpt lat="43.98393" lon="1.98851">
        <ele>246.72</ele>
        <time>2025-10-19T06:55:06Z</time>
      </trkpt>
      <trkpt lat="43.98394" lon="1.98869">
        <ele>246.23</ele>
        <time>2025-10-19T06:55:21Z</time>
      </trkpt>
      <trkpt lat="43.98395" lon="1.98885">
        <ele>244.79</ele>
        <time>2025-10-19T06:55:33Z</time>
      </trkpt>
      <trkpt lat="43.98398" lon="1.98904">
        <ele>244.79</ele>
        <time>2025-10-19T06:55:52Z</time>
      </trkpt>
      <trkpt lat="43.98399" lon="1.98924">
        <ele>245.27</ele>
        <time>2025-10-19T06:56:07Z</time>
      </trkpt>
      <trkpt lat="43.98405" lon="1.98947">
        <ele>247.2</ele>
        <time>2025-10-19T06:56:33Z</time>
      </trkpt>
      <trkpt lat="43.98406" lon="1.98969">
        <ele>250.08</ele>
        <time>2025-10-19T06:57:03Z</time>
      </trkpt>
      <trkpt lat="43.98404" lon="1.98991">
        <ele>249.6</ele>
        <time>2025-10-19T06:57:38Z</time>
      </trkpt>
      <trkpt lat="43.98396" lon="1.99013">
        <ele>248.16</ele>
        <time>2025-10-19T06:57:56Z</time>
      </trkpt>
      <trkpt lat="43.98391" lon="1.99031">
        <ele>248.64</ele>
        <time>2025-10-19T06:58:09Z</time>
      </trkpt>
      <trkpt lat="43.98386" lon="1.99049">
        <ele>246.72</ele>
        <time>2025-10-19T06:58:24Z</time>
      </trkpt>
      <trkpt lat="43.98379" lon="1.99069">
        <ele>243.83</ele>
        <time>2025-10-19T06:58:41Z</time>
      </trkpt>
      <trkpt lat="43.98371" lon="1.99089">
        <ele>240.95</ele>
        <time>2025-10-19T06:58:53Z</time>
      </trkpt>
      <trkpt lat="43.98364" lon="1.99102">
        <ele>239.02</ele>
        <time>2025-10-19T06:59:04Z</time>
      </trkpt>
      <trkpt lat="43.98351" lon="1.99106">
        <ele>239.51</ele>
        <time>2025-10-19T06:59:17Z</time>
      </trkpt>
      <trkpt lat="43.98343" lon="1.99099">
        <ele>240.95</ele>
        <time>2025-10-19T06:59:25Z</time>
      </trkpt>
      <trkpt lat="43.98333" lon="1.99087">
        <ele>242.87</ele>
        <time>2025-10-19T06:59:34Z</time>
      </trkpt>
      <trkpt lat="43.98328" lon="1.99073">
        <ele>245.27</ele>
        <time>2025-10-19T06:59:44Z</time>
      </trkpt>
      <trkpt lat="43.98328" lon="1.99058">
        <ele>246.72</ele>
        <time>2025-10-19T06:59:54Z</time>
      </trkpt>
      <trkpt lat="43.98328" lon="1.9904">
        <ele>249.12</ele>
        <time>2025-10-19T07:00:07Z</time>
      </trkpt>
      <trkpt lat="43.98328" lon="1.99022">
        <ele>249.12</ele>
        <time>2025-10-19T07:00:19Z</time>
      </trkpt>
      <trkpt lat="43.98329" lon="1.99005">
        <ele>249.12</ele>
        <time>2025-10-19T07:00:32Z</time>
      </trkpt>
      <trkpt lat="43.9833" lon="1.98984">
        <ele>248.16</ele>
        <time>2025-10-19T07:00:49Z</time>
      </trkpt>
      <trkpt lat="43.9833" lon="1.98966">
        <ele>248.16</ele>
        <time>2025-10-19T07:01:04Z</time>
      </trkpt>
      <trkpt lat="43.98325" lon="1.9895">
        <ele>248.16</ele>
        <time>2025-10-19T07:01:15Z</time>
      </trkpt>
      <trkpt lat="43.98319" lon="1.98935">
        <ele>247.2</ele>
        <time>2025-10-19T07:01:27Z</time>
      </trkpt>
      <trkpt lat="43.98308" lon="1.98921">
        <ele>246.72</ele>
        <time>2025-10-19T07:01:41Z</time>
      </trkpt>
      <trkpt lat="43.98298" lon="1.98912">
        <ele>246.72</ele>
        <time>2025-10-19T07:01:52Z</time>
      </trkpt>
      <trkpt lat="43.98285" lon="1.98901">
        <ele>248.16</ele>
        <time>2025-10-19T07:02:05Z</time>
      </trkpt>
      <trkpt lat="43.98273" lon="1.98891">
        <ele>246.72</ele>
        <time>2025-10-19T07:02:18Z</time>
      </trkpt>
      <trkpt lat="43.98261" lon="1.98881">
        <ele>246.23</ele>
        <time>2025-10-19T07:02:30Z</time>
      </trkpt>
      <trkpt lat="43.9825" lon="1.98873">
        <ele>243.83</ele>
        <time>2025-10-19T07:02:43Z</time>
      </trkpt>
      <trkpt lat="43.98235" lon="1.98865">
        <ele>241.91</ele>
        <time>2025-10-19T07:02:57Z</time>
      </trkpt>
      <trkpt lat="43.98221" lon="1.98862">
        <ele>239.99</ele>
        <time>2025-10-19T07:03:10Z</time>
      </trkpt>
      <trkpt lat="43.98208" lon="1.98871">
        <ele>239.51</ele>
        <time>2025-10-19T07:03:22Z</time>
      </trkpt>
      <trkpt lat="43.98197" lon="1.98878">
        <ele>238.54</ele>
        <time>2025-10-19T07:03:32Z</time>
      </trkpt>
      <trkpt lat="43.98185" lon="1.98879">
        <ele>238.54</ele>
        <time>2025-10-19T07:03:43Z</time>
      </trkpt>
      <trkpt lat="43.98174" lon="1.98878">
        <ele>239.51</ele>
        <time>2025-10-19T07:03:53Z</time>
      </trkpt>
      <trkpt lat="43.98162" lon="1.98878">
        <ele>240.95</ele>
        <time>2025-10-19T07:04:03Z</time>
      </trkpt>
      <trkpt lat="43.98151" lon="1.98876">
        <ele>239.99</ele>
        <time>2025-10-19T07:04:15Z</time>
      </trkpt>
      <trkpt lat="43.98138" lon="1.98873">
        <ele>239.99</ele>
        <time>2025-10-19T07:04:28Z</time>
      </trkpt>
      <trkpt lat="43.98126" lon="1.98874">
        <ele>241.43</ele>
        <time>2025-10-19T07:04:43Z</time>
      </trkpt>
      <trkpt lat="43.98116" lon="1.98877">
        <ele>242.87</ele>
        <time>2025-10-19T07:04:56Z</time>
      </trkpt>
      <trkpt lat="43.98104" lon="1.98881">
        <ele>244.79</ele>
        <time>2025-10-19T07:05:08Z</time>
      </trkpt>
      <trkpt lat="43.98093" lon="1.98886">
        <ele>247.2</ele>
        <time>2025-10-19T07:05:18Z</time>
      </trkpt>
      <trkpt lat="43.98083" lon="1.98891">
        <ele>248.16</ele>
        <time>2025-10-19T07:05:28Z</time>
      </trkpt>
      <trkpt lat="43.98073" lon="1.98894">
        <ele>246.72</ele>
        <time>2025-10-19T07:05:39Z</time>
      </trkpt>
      <trkpt lat="43.98062" lon="1.98899">
        <ele>248.16</ele>
        <time>2025-10-19T07:05:49Z</time>
      </trkpt>
      <trkpt lat="43.98056" lon="1.9891">
        <ele>247.2</ele>
        <time>2025-10-19T07:05:59Z</time>
      </trkpt>
      <trkpt lat="43.98058" lon="1.98925">
        <ele>248.64</ele>
        <time>2025-10-19T07:06:09Z</time>
      </trkpt>
      <trkpt lat="43.98051" lon="1.98931">
        <ele>248.64</ele>
        <time>2025-10-19T07:06:20Z</time>
      </trkpt>
      <trkpt lat="43.98041" lon="1.98928">
        <ele>248.16</ele>
        <time>2025-10-19T07:06:30Z</time>
      </trkpt>
      <trkpt lat="43.98031" lon="1.98922">
        <ele>248.64</ele>
        <time>2025-10-19T07:06:40Z</time>
      </trkpt>
      <trkpt lat="43.98019" lon="1.98917">
        <ele>247.2</ele>
        <time>2025-10-19T07:06:54Z</time>
      </trkpt>
      <trkpt lat="43.98005" lon="1.98903">
        <ele>244.79</ele>
        <time>2025-10-19T07:07:11Z</time>
      </trkpt>
      <trkpt lat="43.98008" lon="1.98886">
        <ele>242.87</ele>
        <time>2025-10-19T07:07:28Z</time>
      </trkpt>
      <trkpt lat="43.98013" lon="1.98869">
        <ele>241.43</ele>
        <time>2025-10-19T07:07:40Z</time>
      </trkpt>
      <trkpt lat="43.9802" lon="1.98857">
        <ele>239.02</ele>
        <time>2025-10-19T07:07:54Z</time>
      </trkpt>
      <trkpt lat="43.98033" lon="1.98846">
        <ele>234.22</ele>
        <time>2025-10-19T07:08:16Z</time>
      </trkpt>
      <trkpt lat="43.98038" lon="1.98833">
        <ele>231.81</ele>
        <time>2025-10-19T07:09:02Z</time>
      </trkpt>
      <trkpt lat="43.98041" lon="1.98817">
        <ele>230.85</ele>
        <time>2025-10-19T07:09:50Z</time>
      </trkpt>
      <trkpt lat="43.98038" lon="1.98797">
        <ele>228.93</ele>
        <time>2025-10-19T07:10:03Z</time>
      </trkpt>
      <trkpt lat="43.98032" lon="1.9878">
        <ele>225.57</ele>
        <time>2025-10-19T07:10:14Z</time>
      </trkpt>
      <trkpt lat="43.98029" lon="1.98765">
        <ele>223.64</ele>
        <time>2025-10-19T07:10:23Z</time>
      </trkpt>
      <trkpt lat="43.98025" lon="1.9875">
        <ele>222.2</ele>
        <time>2025-10-19T07:10:32Z</time>
      </trkpt>
      <trkpt lat="43.98022" lon="1.98736">
        <ele>219.8</ele>
        <time>2025-10-19T07:10:41Z</time>
      </trkpt>
      <trkpt lat="43.98019" lon="1.9872">
        <ele>217.4</ele>
        <time>2025-10-19T07:10:51Z</time>
      </trkpt>
      <trkpt lat="43.98018" lon="1.987">
        <ele>218.36</ele>
        <time>2025-10-19T07:11:00Z</time>
      </trkpt>
      <trkpt lat="43.98019" lon="1.98685">
        <ele>219.8</ele>
        <time>2025-10-19T07:11:08Z</time>
      </trkpt>
      <trkpt lat="43.98021" lon="1.98669">
        <ele>221.24</ele>
        <time>2025-10-19T07:11:18Z</time>
      </trkpt>
      <trkpt lat="43.98025" lon="1.98655">
        <ele>222.2</ele>
        <time>2025-10-19T07:11:27Z</time>
      </trkpt>
      <trkpt lat="43.98027" lon="1.9864">
        <ele>223.64</ele>
        <time>2025-10-19T07:11:37Z</time>
      </trkpt>
      <trkpt lat="43.98025" lon="1.98624">
        <ele>224.12</ele>
        <time>2025-10-19T07:11:46Z</time>
      </trkpt>
      <trkpt lat="43.98024" lon="1.98609">
        <ele>223.16</ele>
        <time>2025-10-19T07:11:56Z</time>
      </trkpt>
      <trkpt lat="43.98017" lon="1.98599">
        <ele>222.68</ele>
        <time>2025-10-19T07:12:04Z</time>
      </trkpt>
      <trkpt lat="43.98013" lon="1.98591">
        <ele>224.12</ele>
        <time>2025-10-19T07:13:21Z</time>
      </trkpt>
      <trkpt lat="43.98012" lon="1.98589">
        <ele>224.61</ele>
        <time>2025-10-19T07:14:14Z</time>
      </trkpt>
      <trkpt lat="43.98003" lon="1.98585">
        <ele>224.12</ele>
        <time>2025-10-19T07:15:06Z</time>
      </trkpt>
      <trkpt lat="43.97993" lon="1.98583">
        <ele>222.68</ele>
        <time>2025-10-19T07:15:18Z</time>
      </trkpt>
      <trkpt lat="43.97988" lon="1.98585">
        <ele>224.12</ele>
        <time>2025-10-19T07:15:39Z</time>
      </trkpt>
      <trkpt lat="43.97977" lon="1.98586">
        <ele>221.72</ele>
        <time>2025-10-19T07:15:49Z</time>
      </trkpt>
      <trkpt lat="43.97966" lon="1.9859">
        <ele>222.2</ele>
        <time>2025-10-19T07:15:57Z</time>
      </trkpt>
      <trkpt lat="43.97951" lon="1.98595">
        <ele>222.68</ele>
        <time>2025-10-19T07:16:08Z</time>
      </trkpt>
      <trkpt lat="43.97938" lon="1.98598">
        <ele>220.76</ele>
        <time>2025-10-19T07:16:21Z</time>
      </trkpt>
      <trkpt lat="43.97927" lon="1.986">
        <ele>215.95</ele>
        <time>2025-10-19T07:16:35Z</time>
      </trkpt>
      <trkpt lat="43.97913" lon="1.986">
        <ele>214.03</ele>
        <time>2025-10-19T07:16:46Z</time>
      </trkpt>
      <trkpt lat="43.97899" lon="1.98601">
        <ele>213.07</ele>
        <time>2025-10-19T07:16:59Z</time>
      </trkpt>
      <trkpt lat="43.97888" lon="1.98606">
        <ele>212.11</ele>
        <time>2025-10-19T07:17:21Z</time>
      </trkpt>
      <trkpt lat="43.97877" lon="1.9861">
        <ele>210.19</ele>
        <time>2025-10-19T07:17:31Z</time>
      </trkpt>
      <trkpt lat="43.97861" lon="1.98612">
        <ele>206.34</ele>
        <time>2025-10-19T07:17:42Z</time>
      </trkpt>
      <trkpt lat="43.97846" lon="1.98616">
        <ele>205.86</ele>
        <time>2025-10-19T07:17:51Z</time>
      </trkpt>
      <trkpt lat="43.97835" lon="1.98617">
        <ele>205.86</ele>
        <time>2025-10-19T07:18:00Z</time>
      </trkpt>
      <trkpt lat="43.97822" lon="1.98618">
        <ele>206.82</ele>
        <time>2025-10-19T07:18:08Z</time>
      </trkpt>
      <trkpt lat="43.97812" lon="1.98623">
        <ele>206.82</ele>
        <time>2025-10-19T07:18:17Z</time>
      </trkpt>
      <trkpt lat="43.97798" lon="1.98626">
        <ele>206.82</ele>
        <time>2025-10-19T07:18:26Z</time>
      </trkpt>
      <trkpt lat="43.97785" lon="1.98628">
        <ele>206.34</ele>
        <time>2025-10-19T07:18:34Z</time>
      </trkpt>
      <trkpt lat="43.97774" lon="1.9863">
        <ele>206.82</ele>
        <time>2025-10-19T07:18:41Z</time>
      </trkpt>
      <trkpt lat="43.97762" lon="1.98632">
        <ele>208.74</ele>
        <time>2025-10-19T07:18:49Z</time>
      </trkpt>
      <trkpt lat="43.97751" lon="1.98636">
        <ele>208.26</ele>
        <time>2025-10-19T07:18:58Z</time>
      </trkpt>
      <trkpt lat="43.9774" lon="1.98638">
        <ele>207.3</ele>
        <time>2025-10-19T07:19:06Z</time>
      </trkpt>
      <trkpt lat="43.9773" lon="1.9864">
        <ele>207.78</ele>
        <time>2025-10-19T07:19:14Z</time>
      </trkpt>
      <trkpt lat="43.97718" lon="1.98639">
        <ele>207.78</ele>
        <time>2025-10-19T07:19:23Z</time>
      </trkpt>
      <trkpt lat="43.97705" lon="1.98639">
        <ele>205.86</ele>
        <time>2025-10-19T07:19:32Z</time>
      </trkpt>
      <trkpt lat="43.97693" lon="1.9864">
        <ele>204.42</ele>
        <time>2025-10-19T07:19:40Z</time>
      </trkpt>
      <trkpt lat="43.97681" lon="1.98641">
        <ele>202.49</ele>
        <time>2025-10-19T07:19:49Z</time>
      </trkpt>
      <trkpt lat="43.9767" lon="1.98639">
        <ele>201.53</ele>
        <time>2025-10-19T07:19:57Z</time>
      </trkpt>
      <trkpt lat="43.97661" lon="1.98633">
        <ele>202.49</ele>
        <time>2025-10-19T07:20:04Z</time>
      </trkpt>
      <trkpt lat="43.97651" lon="1.98627">
        <ele>203.46</ele>
        <time>2025-10-19T07:20:12Z</time>
      </trkpt>
      <trkpt lat="43.97643" lon="1.98621">
        <ele>204.9</ele>
        <time>2025-10-19T07:20:21Z</time>
      </trkpt>
      <trkpt lat="43.97635" lon="1.98615">
        <ele>204.9</ele>
        <time>2025-10-19T07:20:29Z</time>
      </trkpt>
      <trkpt lat="43.97626" lon="1.98607">
        <ele>203.94</ele>
        <time>2025-10-19T07:20:37Z</time>
      </trkpt>
      <trkpt lat="43.97616" lon="1.98602">
        <ele>204.9</ele>
        <time>2025-10-19T07:20:44Z</time>
      </trkpt>
      <trkpt lat="43.97607" lon="1.98597">
        <ele>204.42</ele>
        <time>2025-10-19T07:20:52Z</time>
      </trkpt>
      <trkpt lat="43.97598" lon="1.98592">
        <ele>204.42</ele>
        <time>2025-10-19T07:21:00Z</time>
      </trkpt>
      <trkpt lat="43.97589" lon="1.98585">
        <ele>204.9</ele>
        <time>2025-10-19T07:21:09Z</time>
      </trkpt>
      <trkpt lat="43.97581" lon="1.98579">
        <ele>204.9</ele>
        <time>2025-10-19T07:21:17Z</time>
      </trkpt>
      <trkpt lat="43.97572" lon="1.98573">
        <ele>203.94</ele>
        <time>2025-10-19T07:21:25Z</time>
      </trkpt>
      <trkpt lat="43.97563" lon="1.9857">
        <ele>203.94</ele>
        <time>2025-10-19T07:21:32Z</time>
      </trkpt>
      <trkpt lat="43.97553" lon="1.98569">
        <ele>203.46</ele>
        <time>2025-10-19T07:21:39Z</time>
      </trkpt>
      <trkpt lat="43.97544" lon="1.98567">
        <ele>203.46</ele>
        <time>2025-10-19T07:21:46Z</time>
      </trkpt>
      <trkpt lat="43.97534" lon="1.98563">
        <ele>202.98</ele>
        <time>2025-10-19T07:21:54Z</time>
      </trkpt>
      <trkpt lat="43.97525" lon="1.98561">
        <ele>202.49</ele>
        <time>2025-10-19T07:22:01Z</time>
      </trkpt>
      <trkpt lat="43.97514" lon="1.98557">
        <ele>202.49</ele>
        <time>2025-10-19T07:22:10Z</time>
      </trkpt>
      <trkpt lat="43.97504" lon="1.98553">
        <ele>202.01</ele>
        <time>2025-10-19T07:22:18Z</time>
      </trkpt>
      <trkpt lat="43.97495" lon="1.9855">
        <ele>202.01</ele>
        <time>2025-10-19T07:22:26Z</time>
      </trkpt>
      <trkpt lat="43.97486" lon="1.98545">
        <ele>201.05</ele>
        <time>2025-10-19T07:22:33Z</time>
      </trkpt>
      <trkpt lat="43.97476" lon="1.98539">
        <ele>200.09</ele>
        <time>2025-10-19T07:22:42Z</time>
      </trkpt>
      <trkpt lat="43.97466" lon="1.98535">
        <ele>200.09</ele>
        <time>2025-10-19T07:22:50Z</time>
      </trkpt>
      <trkpt lat="43.97457" lon="1.9853">
        <ele>200.09</ele>
        <time>2025-10-19T07:22:58Z</time>
      </trkpt>
      <trkpt lat="43.97447" lon="1.98525">
        <ele>200.09</ele>
        <time>2025-10-19T07:23:07Z</time>
      </trkpt>
      <trkpt lat="43.97439" lon="1.9852">
        <ele>200.57</ele>
        <time>2025-10-19T07:23:15Z</time>
      </trkpt>
      <trkpt lat="43.97428" lon="1.98516">
        <ele>199.61</ele>
        <time>2025-10-19T07:23:23Z</time>
      </trkpt>
      <trkpt lat="43.97416" lon="1.98517">
        <ele>198.65</ele>
        <time>2025-10-19T07:23:32Z</time>
      </trkpt>
      <trkpt lat="43.97405" lon="1.98519">
        <ele>196.73</ele>
        <time>2025-10-19T07:23:42Z</time>
      </trkpt>
      <trkpt lat="43.97392" lon="1.98522">
        <ele>196.25</ele>
        <time>2025-10-19T07:23:53Z</time>
      </trkpt>
      <trkpt lat="43.9738" lon="1.98527">
        <ele>195.77</ele>
        <time>2025-10-19T07:24:04Z</time>
      </trkpt>
      <trkpt lat="43.97368" lon="1.98531">
        <ele>196.25</ele>
        <time>2025-10-19T07:24:14Z</time>
      </trkpt>
      <trkpt lat="43.97355" lon="1.98532">
        <ele>197.69</ele>
        <time>2025-10-19T07:24:23Z</time>
      </trkpt>
      <trkpt lat="43.97343" lon="1.98531">
        <ele>200.09</ele>
        <time>2025-10-19T07:24:33Z</time>
      </trkpt>
      <trkpt lat="43.97332" lon="1.98525">
        <ele>201.05</ele>
        <time>2025-10-19T07:24:44Z</time>
      </trkpt>
      <trkpt lat="43.9732" lon="1.98517">
        <ele>201.05</ele>
        <time>2025-10-19T07:24:54Z</time>
      </trkpt>
      <trkpt lat="43.9731" lon="1.9851">
        <ele>201.05</ele>
        <time>2025-10-19T07:25:02Z</time>
      </trkpt>
      <trkpt lat="43.973" lon="1.98501">
        <ele>200.57</ele>
        <time>2025-10-19T07:25:11Z</time>
      </trkpt>
      <trkpt lat="43.9729" lon="1.98496">
        <ele>200.57</ele>
        <time>2025-10-19T07:25:20Z</time>
      </trkpt>
      <trkpt lat="43.97279" lon="1.98491">
        <ele>200.57</ele>
        <time>2025-10-19T07:25:30Z</time>
      </trkpt>
      <trkpt lat="43.97268" lon="1.98485">
        <ele>202.01</ele>
        <time>2025-10-19T07:25:40Z</time>
      </trkpt>
      <trkpt lat="43.97259" lon="1.9848">
        <ele>202.49</ele>
        <time>2025-10-19T07:25:50Z</time>
      </trkpt>
      <trkpt lat="43.97246" lon="1.98472">
        <ele>202.01</ele>
        <time>2025-10-19T07:26:00Z</time>
      </trkpt>
      <trkpt lat="43.97234" lon="1.98464">
        <ele>201.05</ele>
        <time>2025-10-19T07:26:10Z</time>
      </trkpt>
      <trkpt lat="43.97223" lon="1.98457">
        <ele>200.09</ele>
        <time>2025-10-19T07:26:19Z</time>
      </trkpt>
      <trkpt lat="43.97211" lon="1.98451">
        <ele>199.61</ele>
        <time>2025-10-19T07:26:31Z</time>
      </trkpt>
      <trkpt lat="43.97199" lon="1.98441">
        <ele>197.21</ele>
        <time>2025-10-19T07:26:41Z</time>
      </trkpt>
      <trkpt lat="43.97187" lon="1.98436">
        <ele>195.77</ele>
        <time>2025-10-19T07:26:50Z</time>
      </trkpt>
      <trkpt lat="43.97176" lon="1.98431">
        <ele>195.77</ele>
        <time>2025-10-19T07:27:00Z</time>
      </trkpt>
      <trkpt lat="43.97166" lon="1.98426">
        <ele>195.77</ele>
        <time>2025-10-19T07:27:10Z</time>
      </trkpt>
      <trkpt lat="43.97155" lon="1.98418">
        <ele>196.25</ele>
        <time>2025-10-19T07:27:20Z</time>
      </trkpt>
      <trkpt lat="43.97144" lon="1.9841">
        <ele>196.25</ele>
        <time>2025-10-19T07:27:30Z</time>
      </trkpt>
      <trkpt lat="43.97135" lon="1.98402">
        <ele>196.25</ele>
        <time>2025-10-19T07:27:41Z</time>
      </trkpt>
      <trkpt lat="43.97125" lon="1.98394">
        <ele>196.73</ele>
        <time>2025-10-19T07:27:50Z</time>
      </trkpt>
      <trkpt lat="43.97115" lon="1.98385">
        <ele>197.21</ele>
        <time>2025-10-19T07:28:01Z</time>
      </trkpt>
      <trkpt lat="43.97107" lon="1.98376">
        <ele>197.21</ele>
        <time>2025-10-19T07:28:09Z</time>
      </trkpt>
      <trkpt lat="43.97098" lon="1.98365">
        <ele>197.21</ele>
        <time>2025-10-19T07:28:19Z</time>
      </trkpt>
      <trkpt lat="43.97085" lon="1.98351">
        <ele>196.25</ele>
        <time>2025-10-19T07:28:30Z</time>
      </trkpt>
      <trkpt lat="43.97074" lon="1.98338">
        <ele>195.77</ele>
        <time>2025-10-19T07:28:42Z</time>
      </trkpt>
      <trkpt lat="43.97064" lon="1.98329">
        <ele>198.17</ele>
        <time>2025-10-19T07:28:53Z</time>
      </trkpt>
      <trkpt lat="43.97054" lon="1.98323">
        <ele>198.17</ele>
        <time>2025-10-19T07:29:06Z</time>
      </trkpt>
      <trkpt lat="43.97041" lon="1.98318">
        <ele>197.69</ele>
        <time>2025-10-19T07:29:19Z</time>
      </trkpt>
      <trkpt lat="43.97028" lon="1.98314">
        <ele>196.25</ele>
        <time>2025-10-19T07:29:30Z</time>
      </trkpt>
      <trkpt lat="43.97017" lon="1.98313">
        <ele>194.8</ele>
        <time>2025-10-19T07:29:41Z</time>
      </trkpt>
      <trkpt lat="43.97005" lon="1.98311">
        <ele>195.28</ele>
        <time>2025-10-19T07:29:51Z</time>
      </trkpt>
      <trkpt lat="43.96994" lon="1.98308">
        <ele>197.21</ele>
        <time>2025-10-19T07:30:00Z</time>
      </trkpt>
      <trkpt lat="43.96982" lon="1.98305">
        <ele>197.69</ele>
        <time>2025-10-19T07:30:10Z</time>
      </trkpt>
      <trkpt lat="43.96973" lon="1.983">
        <ele>197.69</ele>
        <time>2025-10-19T07:30:19Z</time>
      </trkpt>
      <trkpt lat="43.96961" lon="1.98298">
        <ele>196.73</ele>
        <time>2025-10-19T07:30:32Z</time>
      </trkpt>
      <trkpt lat="43.96947" lon="1.98295">
        <ele>195.28</ele>
        <time>2025-10-19T07:30:50Z</time>
      </trkpt>
      <trkpt lat="43.96934" lon="1.98292">
        <ele>194.8</ele>
        <time>2025-10-19T07:31:03Z</time>
      </trkpt>
      <trkpt lat="43.9692" lon="1.98288">
        <ele>196.73</ele>
        <time>2025-10-19T07:31:14Z</time>
      </trkpt>
      <trkpt lat="43.96909" lon="1.98286">
        <ele>198.17</ele>
        <time>2025-10-19T07:31:24Z</time>
      </trkpt>
      <trkpt lat="43.96898" lon="1.98283">
        <ele>200.09</ele>
        <time>2025-10-19T07:31:35Z</time>
      </trkpt>
      <trkpt lat="43.96886" lon="1.98281">
        <ele>200.57</ele>
        <time>2025-10-19T07:31:47Z</time>
      </trkpt>
      <trkpt lat="43.96873" lon="1.98278">
        <ele>198.17</ele>
        <time>2025-10-19T07:31:58Z</time>
      </trkpt>
      <trkpt lat="43.96858" lon="1.98275">
        <ele>194.32</ele>
        <time>2025-10-19T07:32:11Z</time>
      </trkpt>
      <trkpt lat="43.96845" lon="1.98273">
        <ele>189.52</ele>
        <time>2025-10-19T07:32:24Z</time>
      </trkpt>
      <trkpt lat="43.96833" lon="1.98271">
        <ele>184.71</ele>
        <time>2025-10-19T07:32:37Z</time>
      </trkpt>
      <trkpt lat="43.96823" lon="1.98267">
        <ele>182.31</ele>
        <time>2025-10-19T07:32:53Z</time>
      </trkpt>
      <trkpt lat="43.96806" lon="1.98263">
        <ele>180.38</ele>
        <time>2025-10-19T07:33:07Z</time>
      </trkpt>
      <trkpt lat="43.96793" lon="1.98254">
        <ele>179.9</ele>
        <time>2025-10-19T07:33:20Z</time>
      </trkpt>
      <trkpt lat="43.96781" lon="1.98243">
        <ele>179.42</ele>
        <time>2025-10-19T07:33:34Z</time>
      </trkpt>
      <trkpt lat="43.96765" lon="1.98237">
        <ele>183.27</ele>
        <time>2025-10-19T07:33:43Z</time>
      </trkpt>
      <trkpt lat="43.9675" lon="1.98233">
        <ele>184.23</ele>
        <time>2025-10-19T07:33:57Z</time>
      </trkpt>
      <trkpt lat="43.96738" lon="1.9823">
        <ele>182.31</ele>
        <time>2025-10-19T07:34:11Z</time>
      </trkpt>
      <trkpt lat="43.96724" lon="1.98225">
        <ele>181.35</ele>
        <time>2025-10-19T07:34:27Z</time>
      </trkpt>
      <trkpt lat="43.96711" lon="1.98217">
        <ele>180.87</ele>
        <time>2025-10-19T07:34:38Z</time>
      </trkpt>
      <trkpt lat="43.96697" lon="1.98209">
        <ele>177.02</ele>
        <time>2025-10-19T07:34:54Z</time>
      </trkpt>
      <trkpt lat="43.96681" lon="1.98206">
        <ele>177.5</ele>
        <time>2025-10-19T07:35:06Z</time>
      </trkpt>
      <trkpt lat="43.96666" lon="1.98204">
        <ele>174.62</ele>
        <time>2025-10-19T07:35:51Z</time>
      </trkpt>
      <trkpt lat="43.96658" lon="1.98212">
        <ele>181.35</ele>
        <time>2025-10-19T07:40:08Z</time>
      </trkpt>
      <trkpt lat="43.96656" lon="1.98224">
        <ele>183.75</ele>
        <time>2025-10-19T07:40:44Z</time>
      </trkpt>
      <trkpt lat="43.96656" lon="1.98235">
        <ele>182.79</ele>
        <time>2025-10-19T07:41:15Z</time>
      </trkpt>
      <trkpt lat="43.96656" lon="1.9825">
        <ele>183.27</ele>
        <time>2025-10-19T07:41:30Z</time>
      </trkpt>
      <trkpt lat="43.96656" lon="1.98263">
        <ele>183.27</ele>
        <time>2025-10-19T07:41:47Z</time>
      </trkpt>
      <trkpt lat="43.96655" lon="1.98277">
        <ele>183.27</ele>
        <time>2025-10-19T07:41:58Z</time>
      </trkpt>
      <trkpt lat="43.96655" lon="1.98291">
        <ele>182.79</ele>
        <time>2025-10-19T07:42:07Z</time>
      </trkpt>
      <trkpt lat="43.96655" lon="1.98306">
        <ele>183.27</ele>
        <time>2025-10-19T07:42:16Z</time>
      </trkpt>
      <trkpt lat="43.96655" lon="1.9832">
        <ele>182.79</ele>
        <time>2025-10-19T07:42:25Z</time>
      </trkpt>
      <trkpt lat="43.96655" lon="1.98333">
        <ele>183.27</ele>
        <time>2025-10-19T07:42:33Z</time>
      </trkpt>
      <trkpt lat="43.96655" lon="1.98348">
        <ele>184.23</ele>
        <time>2025-10-19T07:42:43Z</time>
      </trkpt>
      <trkpt lat="43.96656" lon="1.98363">
        <ele>183.27</ele>
        <time>2025-10-19T07:42:53Z</time>
      </trkpt>
      <trkpt lat="43.96656" lon="1.98376">
        <ele>184.23</ele>
        <time>2025-10-19T07:43:01Z</time>
      </trkpt>
      <trkpt lat="43.96656" lon="1.98391">
        <ele>184.23</ele>
        <time>2025-10-19T07:43:10Z</time>
      </trkpt>
      <trkpt lat="43.96656" lon="1.98404">
        <ele>185.67</ele>
        <time>2025-10-19T07:43:23Z</time>
      </trkpt>
      <trkpt lat="43.96656" lon="1.98418">
        <ele>185.67</ele>
        <time>2025-10-19T07:43:32Z</time>
      </trkpt>
      <trkpt lat="43.96656" lon="1.98433">
        <ele>185.67</ele>
        <time>2025-10-19T07:43:41Z</time>
      </trkpt>
      <trkpt lat="43.96654" lon="1.98448">
        <ele>185.67</ele>
        <time>2025-10-19T07:43:50Z</time>
      </trkpt>
      <trkpt lat="43.9665" lon="1.9846">
        <ele>186.15</ele>
        <time>2025-10-19T07:44:00Z</time>
      </trkpt>
      <trkpt lat="43.96651" lon="1.98473">
        <ele>186.15</ele>
        <time>2025-10-19T07:44:12Z</time>
      </trkpt>
      <trkpt lat="43.96653" lon="1.98487">
        <ele>187.11</ele>
        <time>2025-10-19T07:44:23Z</time>
      </trkpt>
      <trkpt lat="43.96656" lon="1.98501">
        <ele>189.04</ele>
        <time>2025-10-19T07:44:34Z</time>
      </trkpt>
      <trkpt lat="43.96659" lon="1.98514">
        <ele>189.04</ele>
        <time>2025-10-19T07:44:45Z</time>
      </trkpt>
      <trkpt lat="43.96662" lon="1.98526">
        <ele>190.48</ele>
        <time>2025-10-19T07:44:58Z</time>
      </trkpt>
      <trkpt lat="43.96665" lon="1.98539">
        <ele>190.96</ele>
        <time>2025-10-19T07:45:09Z</time>
      </trkpt>
      <trkpt lat="43.96666" lon="1.98555">
        <ele>191.92</ele>
        <time>2025-10-19T07:45:22Z</time>
      </trkpt>
      <trkpt lat="43.96665" lon="1.98569">
        <ele>194.32</ele>
        <time>2025-10-19T07:45:35Z</time>
      </trkpt>
      <trkpt lat="43.96661" lon="1.98583">
        <ele>196.25</ele>
        <time>2025-10-19T07:45:49Z</time>
      </trkpt>
      <trkpt lat="43.96661" lon="1.98596">
        <ele>197.69</ele>
        <time>2025-10-19T07:46:01Z</time>
      </trkpt>
      <trkpt lat="43.96662" lon="1.98609">
        <ele>198.17</ele>
        <time>2025-10-19T07:46:14Z</time>
      </trkpt>
      <trkpt lat="43.96662" lon="1.98622">
        <ele>198.65</ele>
        <time>2025-10-19T07:46:24Z</time>
      </trkpt>
      <trkpt lat="43.96664" lon="1.98635">
        <ele>199.61</ele>
        <time>2025-10-19T07:46:34Z</time>
      </trkpt>
      <trkpt lat="43.96668" lon="1.98647">
        <ele>200.09</ele>
        <time>2025-10-19T07:46:44Z</time>
      </trkpt>
      <trkpt lat="43.96672" lon="1.9866">
        <ele>201.53</ele>
        <time>2025-10-19T07:46:54Z</time>
      </trkpt>
      <trkpt lat="43.96677" lon="1.98673">
        <ele>202.98</ele>
        <time>2025-10-19T07:47:06Z</time>
      </trkpt>
      <trkpt lat="43.96683" lon="1.98688">
        <ele>202.98</ele>
        <time>2025-10-19T07:47:19Z</time>
      </trkpt>
      <trkpt lat="43.96689" lon="1.98705">
        <ele>205.38</ele>
        <time>2025-10-19T07:47:33Z</time>
      </trkpt>
      <trkpt lat="43.96693" lon="1.98719">
        <ele>206.82</ele>
        <time>2025-10-19T07:47:44Z</time>
      </trkpt>
      <trkpt lat="43.96698" lon="1.98734">
        <ele>209.22</ele>
        <time>2025-10-19T07:47:57Z</time>
      </trkpt>
      <trkpt lat="43.96701" lon="1.98749">
        <ele>210.67</ele>
        <time>2025-10-19T07:48:09Z</time>
      </trkpt>
      <trkpt lat="43.96704" lon="1.98763">
        <ele>211.63</ele>
        <time>2025-10-19T07:48:20Z</time>
      </trkpt>
      <trkpt lat="43.96706" lon="1.98777">
        <ele>213.07</ele>
        <time>2025-10-19T07:48:30Z</time>
      </trkpt>
      <trkpt lat="43.9671" lon="1.98789">
        <ele>214.03</ele>
        <time>2025-10-19T07:48:39Z</time>
      </trkpt>
      <trkpt lat="43.96717" lon="1.98798">
        <ele>214.99</ele>
        <time>2025-10-19T07:48:48Z</time>
      </trkpt>
      <trkpt lat="43.96726" lon="1.98805">
        <ele>214.51</ele>
        <time>2025-10-19T07:48:58Z</time>
      </trkpt>
      <trkpt lat="43.96736" lon="1.98813">
        <ele>214.51</ele>
        <time>2025-10-19T07:49:09Z</time>
      </trkpt>
      <trkpt lat="43.96745" lon="1.98821">
        <ele>216.43</ele>
        <time>2025-10-19T07:49:21Z</time>
      </trkpt>
      <trkpt lat="43.96755" lon="1.98831">
        <ele>219.32</ele>
        <time>2025-10-19T07:49:34Z</time>
      </trkpt>
      <trkpt lat="43.96764" lon="1.98839">
        <ele>220.28</ele>
        <time>2025-10-19T07:49:46Z</time>
      </trkpt>
      <trkpt lat="43.96772" lon="1.98846">
        <ele>219.8</ele>
        <time>2025-10-19T07:50:02Z</time>
      </trkpt>
      <trkpt lat="43.96786" lon="1.98849">
        <ele>220.28</ele>
        <time>2025-10-19T07:50:14Z</time>
      </trkpt>
      <trkpt lat="43.96799" lon="1.98851">
        <ele>221.72</ele>
        <time>2025-10-19T07:50:25Z</time>
      </trkpt>
      <trkpt lat="43.9681" lon="1.98845">
        <ele>223.16</ele>
        <time>2025-10-19T07:50:37Z</time>
      </trkpt>
      <trkpt lat="43.96824" lon="1.98838">
        <ele>224.12</ele>
        <time>2025-10-19T07:50:48Z</time>
      </trkpt>
      <trkpt lat="43.96837" lon="1.98831">
        <ele>226.53</ele>
        <time>2025-10-19T07:51:00Z</time>
      </trkpt>
      <trkpt lat="43.96849" lon="1.98824">
        <ele>227.01</ele>
        <time>2025-10-19T07:51:14Z</time>
      </trkpt>
      <trkpt lat="43.96865" lon="1.98819">
        <ele>228.93</ele>
        <time>2025-10-19T07:51:29Z</time>
      </trkpt>
      <trkpt lat="43.9688" lon="1.98817">
        <ele>230.37</ele>
        <time>2025-10-19T07:51:45Z</time>
      </trkpt>
      <trkpt lat="43.96894" lon="1.98819">
        <ele>230.85</ele>
        <time>2025-10-19T07:52:04Z</time>
      </trkpt>
      <trkpt lat="43.96903" lon="1.98818">
        <ele>232.78</ele>
        <time>2025-10-19T07:53:18Z</time>
      </trkpt>
      <trkpt lat="43.96893" lon="1.98818">
        <ele>230.85</ele>
        <time>2025-10-19T07:53:42Z</time>
      </trkpt>
      <trkpt lat="43.96901" lon="1.98822">
        <ele>231.81</ele>
        <time>2025-10-19T07:54:52Z</time>
      </trkpt>
      <trkpt lat="43.96906" lon="1.98838">
        <ele>232.3</ele>
        <time>2025-10-19T07:55:06Z</time>
      </trkpt>
      <trkpt lat="43.96906" lon="1.98855">
        <ele>230.85</ele>
        <time>2025-10-19T07:55:19Z</time>
      </trkpt>
      <trkpt lat="43.96903" lon="1.98873">
        <ele>231.33</ele>
        <time>2025-10-19T07:55:31Z</time>
      </trkpt>
      <trkpt lat="43.96902" lon="1.98887">
        <ele>232.3</ele>
        <time>2025-10-19T07:55:42Z</time>
      </trkpt>
      <trkpt lat="43.969" lon="1.98902">
        <ele>231.81</ele>
        <time>2025-10-19T07:55:52Z</time>
      </trkpt>
      <trkpt lat="43.96893" lon="1.98919">
        <ele>231.81</ele>
        <time>2025-10-19T07:56:03Z</time>
      </trkpt>
      <trkpt lat="43.96885" lon="1.98937">
        <ele>233.74</ele>
        <time>2025-10-19T07:56:14Z</time>
      </trkpt>
      <trkpt lat="43.96878" lon="1.98952">
        <ele>235.18</ele>
        <time>2025-10-19T07:56:24Z</time>
      </trkpt>
      <trkpt lat="43.96869" lon="1.98967">
        <ele>238.06</ele>
        <time>2025-10-19T07:56:36Z</time>
      </trkpt>
      <trkpt lat="43.96866" lon="1.98982">
        <ele>237.1</ele>
        <time>2025-10-19T07:56:46Z</time>
      </trkpt>
      <trkpt lat="43.96858" lon="1.98996">
        <ele>236.62</ele>
        <time>2025-10-19T07:56:57Z</time>
      </trkpt>
      <trkpt lat="43.96851" lon="1.99009">
        <ele>237.1</ele>
        <time>2025-10-19T07:57:06Z</time>
      </trkpt>
      <trkpt lat="43.96843" lon="1.99019">
        <ele>237.58</ele>
        <time>2025-10-19T07:57:19Z</time>
      </trkpt>
      <trkpt lat="43.96833" lon="1.99032">
        <ele>238.54</ele>
        <time>2025-10-19T07:57:33Z</time>
      </trkpt>
      <trkpt lat="43.96825" lon="1.99048">
        <ele>239.99</ele>
        <time>2025-10-19T07:57:44Z</time>
      </trkpt>
      <trkpt lat="43.96817" lon="1.99058">
        <ele>241.43</ele>
        <time>2025-10-19T07:57:53Z</time>
      </trkpt>
      <trkpt lat="43.96811" lon="1.99074">
        <ele>240.95</ele>
        <time>2025-10-19T07:58:04Z</time>
      </trkpt>
      <trkpt lat="43.96811" lon="1.99089">
        <ele>239.02</ele>
        <time>2025-10-19T07:58:13Z</time>
      </trkpt>
      <trkpt lat="43.9681" lon="1.99102">
        <ele>237.1</ele>
        <time>2025-10-19T07:58:22Z</time>
      </trkpt>
      <trkpt lat="43.96809" lon="1.99117">
        <ele>236.62</ele>
        <time>2025-10-19T07:58:32Z</time>
      </trkpt>
      <trkpt lat="43.96808" lon="1.99134">
        <ele>236.62</ele>
        <time>2025-10-19T07:58:41Z</time>
      </trkpt>
      <trkpt lat="43.96806" lon="1.99148">
        <ele>236.62</ele>
        <time>2025-10-19T07:58:50Z</time>
      </trkpt>
      <trkpt lat="43.96809" lon="1.99161">
        <ele>236.62</ele>
        <time>2025-10-19T07:58:59Z</time>
      </trkpt>
      <trkpt lat="43.96814" lon="1.99173">
        <ele>236.14</ele>
        <time>2025-10-19T07:59:08Z</time>
      </trkpt>
      <trkpt lat="43.96821" lon="1.99184">
        <ele>236.62</ele>
        <time>2025-10-19T07:59:18Z</time>
      </trkpt>
      <trkpt lat="43.96829" lon="1.99192">
        <ele>235.66</ele>
        <time>2025-10-19T07:59:28Z</time>
      </trkpt>
      <trkpt lat="43.9684" lon="1.99197">
        <ele>235.18</ele>
        <time>2025-10-19T07:59:39Z</time>
      </trkpt>
      <trkpt lat="43.9685" lon="1.99199">
        <ele>236.14</ele>
        <time>2025-10-19T07:59:49Z</time>
      </trkpt>
      <trkpt lat="43.96861" lon="1.99196">
        <ele>236.62</ele>
        <time>2025-10-19T08:00:00Z</time>
      </trkpt>
      <trkpt lat="43.96873" lon="1.99188">
        <ele>236.62</ele>
        <time>2025-10-19T08:00:13Z</time>
      </trkpt>
      <trkpt lat="43.96886" lon="1.99177">
        <ele>237.1</ele>
        <time>2025-10-19T08:00:27Z</time>
      </trkpt>
      <trkpt lat="43.96893" lon="1.99162">
        <ele>236.14</ele>
        <time>2025-10-19T08:00:42Z</time>
      </trkpt>
      <trkpt lat="43.96903" lon="1.9915">
        <ele>236.62</ele>
        <time>2025-10-19T08:00:55Z</time>
      </trkpt>
      <trkpt lat="43.96914" lon="1.99143">
        <ele>235.18</ele>
        <time>2025-10-19T08:01:08Z</time>
      </trkpt>
      <trkpt lat="43.96925" lon="1.99136">
        <ele>235.66</ele>
        <time>2025-10-19T08:01:21Z</time>
      </trkpt>
      <trkpt lat="43.96936" lon="1.99128">
        <ele>237.1</ele>
        <time>2025-10-19T08:01:33Z</time>
      </trkpt>
      <trkpt lat="43.96948" lon="1.99119">
        <ele>238.06</ele>
        <time>2025-10-19T08:01:46Z</time>
      </trkpt>
      <trkpt lat="43.9696" lon="1.99109">
        <ele>238.54</ele>
        <time>2025-10-19T08:01:58Z</time>
      </trkpt>
      <trkpt lat="43.96973" lon="1.99098">
        <ele>239.02</ele>
        <time>2025-10-19T08:02:11Z</time>
      </trkpt>
      <trkpt lat="43.96988" lon="1.99086">
        <ele>239.51</ele>
        <time>2025-10-19T08:02:26Z</time>
      </trkpt>
      <trkpt lat="43.97001" lon="1.99077">
        <ele>239.02</ele>
        <time>2025-10-19T08:02:38Z</time>
      </trkpt>
      <trkpt lat="43.97009" lon="1.9907">
        <ele>239.02</ele>
        <time>2025-10-19T08:03:10Z</time>
      </trkpt>
      <trkpt lat="43.9702" lon="1.99065">
        <ele>239.51</ele>
        <time>2025-10-19T08:03:19Z</time>
      </trkpt>
      <trkpt lat="43.9703" lon="1.99061">
        <ele>239.51</ele>
        <time>2025-10-19T08:03:27Z</time>
      </trkpt>
      <trkpt lat="43.97042" lon="1.99059">
        <ele>239.51</ele>
        <time>2025-10-19T08:03:35Z</time>
      </trkpt>
      <trkpt lat="43.97053" lon="1.99055">
        <ele>239.51</ele>
        <time>2025-10-19T08:03:44Z</time>
      </trkpt>
      <trkpt lat="43.97064" lon="1.99053">
        <ele>239.02</ele>
        <time>2025-10-19T08:03:52Z</time>
      </trkpt>
      <trkpt lat="43.97074" lon="1.99048">
        <ele>238.54</ele>
        <time>2025-10-19T08:04:01Z</time>
      </trkpt>
      <trkpt lat="43.97085" lon="1.99043">
        <ele>238.06</ele>
        <time>2025-10-19T08:04:10Z</time>
      </trkpt>
      <trkpt lat="43.97097" lon="1.99041">
        <ele>238.54</ele>
        <time>2025-10-19T08:04:18Z</time>
      </trkpt>
      <trkpt lat="43.97111" lon="1.99034">
        <ele>239.02</ele>
        <time>2025-10-19T08:04:28Z</time>
      </trkpt>
      <trkpt lat="43.9712" lon="1.99025">
        <ele>239.99</ele>
        <time>2025-10-19T08:04:36Z</time>
      </trkpt>
      <trkpt lat="43.9713" lon="1.99018">
        <ele>239.02</ele>
        <time>2025-10-19T08:04:46Z</time>
      </trkpt>
      <trkpt lat="43.97137" lon="1.99006">
        <ele>236.62</ele>
        <time>2025-10-19T08:04:58Z</time>
      </trkpt>
      <trkpt lat="43.97144" lon="1.98991">
        <ele>236.62</ele>
        <time>2025-10-19T08:05:10Z</time>
      </trkpt>
      <trkpt lat="43.97154" lon="1.98982">
        <ele>235.18</ele>
        <time>2025-10-19T08:05:23Z</time>
      </trkpt>
      <trkpt lat="43.97167" lon="1.98989">
        <ele>232.78</ele>
        <time>2025-10-19T08:05:33Z</time>
      </trkpt>
      <trkpt lat="43.97176" lon="1.99001">
        <ele>234.7</ele>
        <time>2025-10-19T08:05:44Z</time>
      </trkpt>
      <trkpt lat="43.97178" lon="1.99015">
        <ele>237.1</ele>
        <time>2025-10-19T08:05:53Z</time>
      </trkpt>
      <trkpt lat="43.97175" lon="1.99029">
        <ele>237.58</ele>
        <time>2025-10-19T08:06:03Z</time>
      </trkpt>
      <trkpt lat="43.97169" lon="1.99043">
        <ele>238.54</ele>
        <time>2025-10-19T08:06:12Z</time>
      </trkpt>
      <trkpt lat="43.97162" lon="1.99052">
        <ele>237.1</ele>
        <time>2025-10-19T08:06:22Z</time>
      </trkpt>
      <trkpt lat="43.97155" lon="1.99063">
        <ele>236.14</ele>
        <time>2025-10-19T08:06:32Z</time>
      </trkpt>
      <trkpt lat="43.97156" lon="1.99074">
        <ele>235.66</ele>
        <time>2025-10-19T08:06:40Z</time>
      </trkpt>
      <trkpt lat="43.97162" lon="1.99087">
        <ele>234.22</ele>
        <time>2025-10-19T08:06:50Z</time>
      </trkpt>
      <trkpt lat="43.97165" lon="1.99102">
        <ele>232.78</ele>
        <time>2025-10-19T08:06:59Z</time>
      </trkpt>
      <trkpt lat="43.97165" lon="1.99117">
        <ele>233.74</ele>
        <time>2025-10-19T08:07:07Z</time>
      </trkpt>
      <trkpt lat="43.97164" lon="1.99134">
        <ele>235.18</ele>
        <time>2025-10-19T08:07:17Z</time>
      </trkpt>
      <trkpt lat="43.97163" lon="1.9915">
        <ele>235.66</ele>
        <time>2025-10-19T08:07:27Z</time>
      </trkpt>
      <trkpt lat="43.97165" lon="1.99163">
        <ele>235.18</ele>
        <time>2025-10-19T08:07:35Z</time>
      </trkpt>
      <trkpt lat="43.97166" lon="1.99174">
        <ele>235.66</ele>
        <time>2025-10-19T08:07:54Z</time>
      </trkpt>
      <trkpt lat="43.97171" lon="1.99187">
        <ele>232.78</ele>
        <time>2025-10-19T08:08:04Z</time>
      </trkpt>
      <trkpt lat="43.97176" lon="1.992">
        <ele>231.81</ele>
        <time>2025-10-19T08:08:13Z</time>
      </trkpt>
      <trkpt lat="43.97179" lon="1.99215">
        <ele>233.26</ele>
        <time>2025-10-19T08:08:21Z</time>
      </trkpt>
      <trkpt lat="43.97176" lon="1.9923">
        <ele>235.66</ele>
        <time>2025-10-19T08:08:30Z</time>
      </trkpt>
      <trkpt lat="43.97169" lon="1.99243">
        <ele>237.1</ele>
        <time>2025-10-19T08:08:41Z</time>
      </trkpt>
      <trkpt lat="43.97162" lon="1.99251">
        <ele>237.58</ele>
        <time>2025-10-19T08:09:54Z</time>
      </trkpt>
      <trkpt lat="43.97154" lon="1.99261">
        <ele>237.58</ele>
        <time>2025-10-19T08:10:09Z</time>
      </trkpt>
      <trkpt lat="43.97146" lon="1.99272">
        <ele>238.06</ele>
        <time>2025-10-19T08:10:19Z</time>
      </trkpt>
      <trkpt lat="43.97139" lon="1.99281">
        <ele>238.54</ele>
        <time>2025-10-19T08:10:28Z</time>
      </trkpt>
      <trkpt lat="43.97132" lon="1.99291">
        <ele>238.54</ele>
        <time>2025-10-19T08:10:37Z</time>
      </trkpt>
      <trkpt lat="43.97125" lon="1.99302">
        <ele>238.06</ele>
        <time>2025-10-19T08:10:47Z</time>
      </trkpt>
      <trkpt lat="43.97118" lon="1.99312">
        <ele>239.02</ele>
        <time>2025-10-19T08:10:56Z</time>
      </trkpt>
      <trkpt lat="43.97111" lon="1.99321">
        <ele>239.51</ele>
        <time>2025-10-19T08:11:05Z</time>
      </trkpt>
      <trkpt lat="43.97104" lon="1.99332">
        <ele>238.54</ele>
        <time>2025-10-19T08:11:14Z</time>
      </trkpt>
      <trkpt lat="43.97097" lon="1.99342">
        <ele>238.06</ele>
        <time>2025-10-19T08:11:23Z</time>
      </trkpt>
      <trkpt lat="43.9709" lon="1.9935">
        <ele>238.54</ele>
        <time>2025-10-19T08:11:31Z</time>
      </trkpt>
      <trkpt lat="43.97083" lon="1.9936">
        <ele>239.02</ele>
        <time>2025-10-19T08:11:41Z</time>
      </trkpt>
      <trkpt lat="43.97076" lon="1.9937">
        <ele>239.02</ele>
        <time>2025-10-19T08:11:50Z</time>
      </trkpt>
      <trkpt lat="43.97069" lon="1.99379">
        <ele>239.99</ele>
        <time>2025-10-19T08:12:00Z</time>
      </trkpt>
      <trkpt lat="43.97062" lon="1.99389">
        <ele>239.99</ele>
        <time>2025-10-19T08:12:10Z</time>
      </trkpt>
      <trkpt lat="43.97054" lon="1.994">
        <ele>240.47</ele>
        <time>2025-10-19T08:12:20Z</time>
      </trkpt>
      <trkpt lat="43.97049" lon="1.99411">
        <ele>240.95</ele>
        <time>2025-10-19T08:12:30Z</time>
      </trkpt>
      <trkpt lat="43.97043" lon="1.99424">
        <ele>240.47</ele>
        <time>2025-10-19T08:12:40Z</time>
      </trkpt>
      <trkpt lat="43.97038" lon="1.99437">
        <ele>240.95</ele>
        <time>2025-10-19T08:12:49Z</time>
      </trkpt>
      <trkpt lat="43.97033" lon="1.99452">
        <ele>241.43</ele>
        <time>2025-10-19T08:12:58Z</time>
      </trkpt>
      <trkpt lat="43.97028" lon="1.99465">
        <ele>241.91</ele>
        <time>2025-10-19T08:13:07Z</time>
      </trkpt>
      <trkpt lat="43.97024" lon="1.99479">
        <ele>243.35</ele>
        <time>2025-10-19T08:13:17Z</time>
      </trkpt>
      <trkpt lat="43.9702" lon="1.99493">
        <ele>245.27</ele>
        <time>2025-10-19T08:13:27Z</time>
      </trkpt>
      <trkpt lat="43.97016" lon="1.99507">
        <ele>245.27</ele>
        <time>2025-10-19T08:13:37Z</time>
      </trkpt>
      <trkpt lat="43.97011" lon="1.99519">
        <ele>244.31</ele>
        <time>2025-10-19T08:13:46Z</time>
      </trkpt>
      <trkpt lat="43.97007" lon="1.99533">
        <ele>245.27</ele>
        <time>2025-10-19T08:13:55Z</time>
      </trkpt>
      <trkpt lat="43.97" lon="1.99546">
        <ele>246.23</ele>
        <time>2025-10-19T08:14:05Z</time>
      </trkpt>
      <trkpt lat="43.96995" lon="1.9956">
        <ele>247.68</ele>
        <time>2025-10-19T08:14:24Z</time>
      </trkpt>
      <trkpt lat="43.96993" lon="1.99575">
        <ele>249.12</ele>
        <time>2025-10-19T08:17:40Z</time>
      </trkpt>
      <trkpt lat="43.96985" lon="1.99587">
        <ele>247.68</ele>
        <time>2025-10-19T08:17:53Z</time>
      </trkpt>
      <trkpt lat="43.96975" lon="1.99594">
        <ele>248.64</ele>
        <time>2025-10-19T08:18:02Z</time>
      </trkpt>
      <trkpt lat="43.96968" lon="1.99602">
        <ele>248.64</ele>
        <time>2025-10-19T08:18:11Z</time>
      </trkpt>
      <trkpt lat="43.96959" lon="1.99607">
        <ele>249.6</ele>
        <time>2025-10-19T08:18:20Z</time>
      </trkpt>
      <trkpt lat="43.96948" lon="1.9961">
        <ele>250.08</ele>
        <time>2025-10-19T08:18:30Z</time>
      </trkpt>
      <trkpt lat="43.96939" lon="1.99616">
        <ele>251.04</ele>
        <time>2025-10-19T08:18:39Z</time>
      </trkpt>
      <trkpt lat="43.96928" lon="1.99621">
        <ele>251.52</ele>
        <time>2025-10-19T08:18:49Z</time>
      </trkpt>
      <trkpt lat="43.96917" lon="1.9963">
        <ele>251.04</ele>
        <time>2025-10-19T08:19:02Z</time>
      </trkpt>
      <trkpt lat="43.96908" lon="1.99635">
        <ele>250.56</ele>
        <time>2025-10-19T08:19:15Z</time>
      </trkpt>
      <trkpt lat="43.96902" lon="1.99646">
        <ele>248.64</ele>
        <time>2025-10-19T08:19:25Z</time>
      </trkpt>
      <trkpt lat="43.96902" lon="1.99661">
        <ele>246.23</ele>
        <time>2025-10-19T08:19:35Z</time>
      </trkpt>
      <trkpt lat="43.96905" lon="1.99677">
        <ele>245.75</ele>
        <time>2025-10-19T08:19:46Z</time>
      </trkpt>
      <trkpt lat="43.96906" lon="1.99691">
        <ele>246.72</ele>
        <time>2025-10-19T08:19:56Z</time>
      </trkpt>
      <trkpt lat="43.96909" lon="1.99705">
        <ele>247.2</ele>
        <time>2025-10-19T08:20:05Z</time>
      </trkpt>
      <trkpt lat="43.9691" lon="1.99719">
        <ele>244.79</ele>
        <time>2025-10-19T08:20:14Z</time>
      </trkpt>
      <trkpt lat="43.96914" lon="1.99734">
        <ele>242.39</ele>
        <time>2025-10-19T08:20:25Z</time>
      </trkpt>
      <trkpt lat="43.96919" lon="1.99748">
        <ele>242.39</ele>
        <time>2025-10-19T08:20:35Z</time>
      </trkpt>
      <trkpt lat="43.96924" lon="1.99761">
        <ele>242.87</ele>
        <time>2025-10-19T08:20:44Z</time>
      </trkpt>
      <trkpt lat="43.96928" lon="1.99774">
        <ele>242.39</ele>
        <time>2025-10-19T08:20:53Z</time>
      </trkpt>
      <trkpt lat="43.96933" lon="1.99787">
        <ele>243.35</ele>
        <time>2025-10-19T08:21:07Z</time>
      </trkpt>
      <trkpt lat="43.96939" lon="1.99798">
        <ele>242.87</ele>
        <time>2025-10-19T08:21:17Z</time>
      </trkpt>
      <trkpt lat="43.96944" lon="1.99812">
        <ele>243.83</ele>
        <time>2025-10-19T08:21:27Z</time>
      </trkpt>
      <trkpt lat="43.96949" lon="1.99824">
        <ele>242.87</ele>
        <time>2025-10-19T08:21:36Z</time>
      </trkpt>
      <trkpt lat="43.96954" lon="1.99837">
        <ele>242.39</ele>
        <time>2025-10-19T08:21:45Z</time>
      </trkpt>
      <trkpt lat="43.96958" lon="1.99852">
        <ele>242.39</ele>
        <time>2025-10-19T08:21:54Z</time>
      </trkpt>
      <trkpt lat="43.9696" lon="1.99869">
        <ele>245.27</ele>
        <time>2025-10-19T08:22:03Z</time>
      </trkpt>
      <trkpt lat="43.96964" lon="1.99883">
        <ele>245.75</ele>
        <time>2025-10-19T08:22:13Z</time>
      </trkpt>
      <trkpt lat="43.96967" lon="1.99895">
        <ele>246.23</ele>
        <time>2025-10-19T08:22:43Z</time>
      </trkpt>
      <trkpt lat="43.9697" lon="1.99897">
        <ele>249.6</ele>
        <time>2025-10-19T08:23:26Z</time>
      </trkpt>
      <trkpt lat="43.9698" lon="1.99891">
        <ele>249.12</ele>
        <time>2025-10-19T08:23:38Z</time>
      </trkpt>
      <trkpt lat="43.96991" lon="1.99886">
        <ele>247.68</ele>
        <time>2025-10-19T08:23:50Z</time>
      </trkpt>
      <trkpt lat="43.97003" lon="1.99877">
        <ele>247.68</ele>
        <time>2025-10-19T08:24:03Z</time>
      </trkpt>
      <trkpt lat="43.97016" lon="1.99868">
        <ele>247.68</ele>
        <time>2025-10-19T08:24:15Z</time>
      </trkpt>
      <trkpt lat="43.97029" lon="1.99859">
        <ele>247.68</ele>
        <time>2025-10-19T08:24:27Z</time>
      </trkpt>
      <trkpt lat="43.97039" lon="1.99847">
        <ele>244.79</ele>
        <time>2025-10-19T08:24:41Z</time>
      </trkpt>
      <trkpt lat="43.9705" lon="1.9984">
        <ele>243.35</ele>
        <time>2025-10-19T08:24:53Z</time>
      </trkpt>
      <trkpt lat="43.97062" lon="1.99831">
        <ele>240.47</ele>
        <time>2025-10-19T08:25:07Z</time>
      </trkpt>
      <trkpt lat="43.97077" lon="1.99822">
        <ele>237.1</ele>
        <time>2025-10-19T08:25:23Z</time>
      </trkpt>
      <trkpt lat="43.97085" lon="1.99808">
        <ele>235.66</ele>
        <time>2025-10-19T08:25:33Z</time>
      </trkpt>
      <trkpt lat="43.97092" lon="1.99793">
        <ele>234.22</ele>
        <time>2025-10-19T08:25:44Z</time>
      </trkpt>
      <trkpt lat="43.971" lon="1.99779">
        <ele>236.62</ele>
        <time>2025-10-19T08:25:54Z</time>
      </trkpt>
      <trkpt lat="43.97112" lon="1.99774">
        <ele>236.62</ele>
        <time>2025-10-19T08:26:05Z</time>
      </trkpt>
      <trkpt lat="43.97125" lon="1.9977">
        <ele>238.06</ele>
        <time>2025-10-19T08:26:15Z</time>
      </trkpt>
      <trkpt lat="43.97137" lon="1.99763">
        <ele>237.58</ele>
        <time>2025-10-19T08:26:27Z</time>
      </trkpt>
      <trkpt lat="43.97143" lon="1.9975">
        <ele>237.58</ele>
        <time>2025-10-19T08:26:38Z</time>
      </trkpt>
      <trkpt lat="43.97144" lon="1.99731">
        <ele>237.1</ele>
        <time>2025-10-19T08:26:51Z</time>
      </trkpt>
      <trkpt lat="43.97138" lon="1.99714">
        <ele>238.54</ele>
        <time>2025-10-19T08:27:02Z</time>
      </trkpt>
      <trkpt lat="43.97133" lon="1.99697">
        <ele>239.51</ele>
        <time>2025-10-19T08:27:13Z</time>
      </trkpt>
      <trkpt lat="43.97134" lon="1.99684">
        <ele>238.54</ele>
        <time>2025-10-19T08:27:23Z</time>
      </trkpt>
      <trkpt lat="43.97138" lon="1.99668">
        <ele>237.58</ele>
        <time>2025-10-19T08:27:33Z</time>
      </trkpt>
      <trkpt lat="43.97141" lon="1.99655">
        <ele>236.62</ele>
        <time>2025-10-19T08:27:42Z</time>
      </trkpt>
      <trkpt lat="43.97145" lon="1.99643">
        <ele>235.66</ele>
        <time>2025-10-19T08:27:51Z</time>
      </trkpt>
      <trkpt lat="43.97152" lon="1.99629">
        <ele>234.7</ele>
        <time>2025-10-19T08:28:01Z</time>
      </trkpt>
      <trkpt lat="43.97155" lon="1.99613">
        <ele>232.78</ele>
        <time>2025-10-19T08:28:11Z</time>
      </trkpt>
      <trkpt lat="43.9716" lon="1.99598">
        <ele>232.3</ele>
        <time>2025-10-19T08:28:20Z</time>
      </trkpt>
      <trkpt lat="43.97163" lon="1.99582">
        <ele>231.81</ele>
        <time>2025-10-19T08:28:30Z</time>
      </trkpt>
      <trkpt lat="43.97167" lon="1.99568">
        <ele>231.33</ele>
        <time>2025-10-19T08:28:40Z</time>
      </trkpt>
      <trkpt lat="43.97169" lon="1.99552">
        <ele>229.89</ele>
        <time>2025-10-19T08:28:50Z</time>
      </trkpt>
      <trkpt lat="43.97172" lon="1.99538">
        <ele>228.45</ele>
        <time>2025-10-19T08:29:00Z</time>
      </trkpt>
      <trkpt lat="43.97174" lon="1.99522">
        <ele>225.57</ele>
        <time>2025-10-19T08:29:13Z</time>
      </trkpt>
      <trkpt lat="43.97177" lon="1.99504">
        <ele>224.12</ele>
        <time>2025-10-19T08:29:25Z</time>
      </trkpt>
      <trkpt lat="43.97189" lon="1.995">
        <ele>224.12</ele>
        <time>2025-10-19T08:29:36Z</time>
      </trkpt>
      <trkpt lat="43.972" lon="1.99497">
        <ele>223.16</ele>
        <time>2025-10-19T08:29:45Z</time>
      </trkpt>
      <trkpt lat="43.97211" lon="1.99495">
        <ele>224.12</ele>
        <time>2025-10-19T08:29:54Z</time>
      </trkpt>
      <trkpt lat="43.97222" lon="1.99494">
        <ele>224.61</ele>
        <time>2025-10-19T08:30:05Z</time>
      </trkpt>
      <trkpt lat="43.97232" lon="1.99494">
        <ele>226.05</ele>
        <time>2025-10-19T08:30:14Z</time>
      </trkpt>
      <trkpt lat="43.97243" lon="1.99494">
        <ele>227.01</ele>
        <time>2025-10-19T08:30:23Z</time>
      </trkpt>
      <trkpt lat="43.97256" lon="1.99493">
        <ele>227.01</ele>
        <time>2025-10-19T08:30:32Z</time>
      </trkpt>
      <trkpt lat="43.97267" lon="1.9949">
        <ele>227.49</ele>
        <time>2025-10-19T08:30:42Z</time>
      </trkpt>
      <trkpt lat="43.9728" lon="1.99485">
        <ele>227.49</ele>
        <time>2025-10-19T08:30:53Z</time>
      </trkpt>
      <trkpt lat="43.97293" lon="1.99479">
        <ele>228.45</ele>
        <time>2025-10-19T08:31:06Z</time>
      </trkpt>
      <trkpt lat="43.97306" lon="1.99474">
        <ele>227.01</ele>
        <time>2025-10-19T08:31:18Z</time>
      </trkpt>
      <trkpt lat="43.97318" lon="1.99472">
        <ele>226.05</ele>
        <time>2025-10-19T08:31:29Z</time>
      </trkpt>
      <trkpt lat="43.9733" lon="1.99471">
        <ele>226.53</ele>
        <time>2025-10-19T08:31:40Z</time>
      </trkpt>
      <trkpt lat="43.97344" lon="1.99468">
        <ele>225.57</ele>
        <time>2025-10-19T08:31:52Z</time>
      </trkpt>
      <trkpt lat="43.97355" lon="1.99465">
        <ele>223.64</ele>
        <time>2025-10-19T08:32:02Z</time>
      </trkpt>
      <trkpt lat="43.97367" lon="1.99462">
        <ele>221.24</ele>
        <time>2025-10-19T08:32:14Z</time>
      </trkpt>
      <trkpt lat="43.97377" lon="1.99461">
        <ele>220.28</ele>
        <time>2025-10-19T08:32:24Z</time>
      </trkpt>
      <trkpt lat="43.97389" lon="1.99459">
        <ele>217.88</ele>
        <time>2025-10-19T08:32:35Z</time>
      </trkpt>
      <trkpt lat="43.97404" lon="1.99456">
        <ele>214.99</ele>
        <time>2025-10-19T08:32:46Z</time>
      </trkpt>
      <trkpt lat="43.97417" lon="1.99453">
        <ele>214.51</ele>
        <time>2025-10-19T08:32:58Z</time>
      </trkpt>
      <trkpt lat="43.97429" lon="1.99452">
        <ele>214.03</ele>
        <time>2025-10-19T08:33:10Z</time>
      </trkpt>
      <trkpt lat="43.97435" lon="1.99453">
        <ele>214.03</ele>
        <time>2025-10-19T08:37:26Z</time>
      </trkpt>
      <trkpt lat="43.97444" lon="1.99449">
        <ele>213.55</ele>
        <time>2025-10-19T08:41:00Z</time>
      </trkpt>
      <trkpt lat="43.97456" lon="1.99447">
        <ele>213.55</ele>
        <time>2025-10-19T08:41:11Z</time>
      </trkpt>
      <trkpt lat="43.97466" lon="1.99444">
        <ele>216.43</ele>
        <time>2025-10-19T08:41:41Z</time>
      </trkpt>
      <trkpt lat="43.97475" lon="1.99442">
        <ele>216.91</ele>
        <time>2025-10-19T08:41:50Z</time>
      </trkpt>
      <trkpt lat="43.97483" lon="1.99439">
        <ele>216.91</ele>
        <time>2025-10-19T08:42:00Z</time>
      </trkpt>
      <trkpt lat="43.97493" lon="1.99437">
        <ele>218.36</ele>
        <time>2025-10-19T08:42:11Z</time>
      </trkpt>
      <trkpt lat="43.97502" lon="1.99433">
        <ele>221.24</ele>
        <time>2025-10-19T08:42:23Z</time>
      </trkpt>
      <trkpt lat="43.97513" lon="1.99429">
        <ele>223.16</ele>
        <time>2025-10-19T08:42:35Z</time>
      </trkpt>
      <trkpt lat="43.97523" lon="1.99423">
        <ele>224.61</ele>
        <time>2025-10-19T08:42:47Z</time>
      </trkpt>
      <trkpt lat="43.97531" lon="1.99416">
        <ele>225.09</ele>
        <time>2025-10-19T08:42:59Z</time>
      </trkpt>
      <trkpt lat="43.97539" lon="1.99407">
        <ele>226.05</ele>
        <time>2025-10-19T08:43:10Z</time>
      </trkpt>
      <trkpt lat="43.97547" lon="1.99397">
        <ele>226.05</ele>
        <time>2025-10-19T08:43:21Z</time>
      </trkpt>
      <trkpt lat="43.97554" lon="1.99389">
        <ele>227.97</ele>
        <time>2025-10-19T08:43:33Z</time>
      </trkpt>
      <trkpt lat="43.97562" lon="1.99379">
        <ele>228.45</ele>
        <time>2025-10-19T08:43:45Z</time>
      </trkpt>
      <trkpt lat="43.97571" lon="1.9937">
        <ele>229.89</ele>
        <time>2025-10-19T08:43:57Z</time>
      </trkpt>
      <trkpt lat="43.97581" lon="1.99361">
        <ele>230.85</ele>
        <time>2025-10-19T08:44:10Z</time>
      </trkpt>
      <trkpt lat="43.97592" lon="1.99352">
        <ele>233.74</ele>
        <time>2025-10-19T08:44:24Z</time>
      </trkpt>
      <trkpt lat="43.97604" lon="1.9934">
        <ele>235.66</ele>
        <time>2025-10-19T08:44:41Z</time>
      </trkpt>
      <trkpt lat="43.9761" lon="1.99327">
        <ele>237.58</ele>
        <time>2025-10-19T08:44:53Z</time>
      </trkpt>
      <trkpt lat="43.97614" lon="1.99312">
        <ele>238.54</ele>
        <time>2025-10-19T08:45:06Z</time>
      </trkpt>
      <trkpt lat="43.97622" lon="1.99297">
        <ele>242.39</ele>
        <time>2025-10-19T08:45:24Z</time>
      </trkpt>
      <trkpt lat="43.97633" lon="1.99288">
        <ele>242.39</ele>
        <time>2025-10-19T08:45:36Z</time>
      </trkpt>
      <trkpt lat="43.97644" lon="1.9928">
        <ele>241.91</ele>
        <time>2025-10-19T08:45:50Z</time>
      </trkpt>
      <trkpt lat="43.97658" lon="1.99275">
        <ele>243.35</ele>
        <time>2025-10-19T08:46:18Z</time>
      </trkpt>
      <trkpt lat="43.97669" lon="1.99273">
        <ele>245.27</ele>
        <time>2025-10-19T08:46:28Z</time>
      </trkpt>
      <trkpt lat="43.97679" lon="1.99271">
        <ele>246.72</ele>
        <time>2025-10-19T08:46:38Z</time>
      </trkpt>
      <trkpt lat="43.9769" lon="1.99269">
        <ele>245.27</ele>
        <time>2025-10-19T08:46:48Z</time>
      </trkpt>
      <trkpt lat="43.97702" lon="1.99268">
        <ele>245.75</ele>
        <time>2025-10-19T08:46:57Z</time>
      </trkpt>
      <trkpt lat="43.97713" lon="1.99268">
        <ele>245.75</ele>
        <time>2025-10-19T08:47:07Z</time>
      </trkpt>
      <trkpt lat="43.97723" lon="1.99269">
        <ele>245.27</ele>
        <time>2025-10-19T08:47:17Z</time>
      </trkpt>
      <trkpt lat="43.97734" lon="1.9927">
        <ele>246.23</ele>
        <time>2025-10-19T08:47:26Z</time>
      </trkpt>
      <trkpt lat="43.97746" lon="1.9927">
        <ele>247.2</ele>
        <time>2025-10-19T08:47:35Z</time>
      </trkpt>
      <trkpt lat="43.97756" lon="1.9927">
        <ele>248.16</ele>
        <time>2025-10-19T08:47:44Z</time>
      </trkpt>
      <trkpt lat="43.97766" lon="1.99269">
        <ele>247.68</ele>
        <time>2025-10-19T08:47:54Z</time>
      </trkpt>
      <trkpt lat="43.97774" lon="1.9926">
        <ele>246.72</ele>
        <time>2025-10-19T08:48:05Z</time>
      </trkpt>
      <trkpt lat="43.97783" lon="1.99249">
        <ele>245.75</ele>
        <time>2025-10-19T08:48:16Z</time>
      </trkpt>
      <trkpt lat="43.97795" lon="1.99245">
        <ele>244.79</ele>
        <time>2025-10-19T08:48:25Z</time>
      </trkpt>
      <trkpt lat="43.97806" lon="1.99244">
        <ele>244.79</ele>
        <time>2025-10-19T08:48:36Z</time>
      </trkpt>
      <trkpt lat="43.97818" lon="1.99245">
        <ele>243.35</ele>
        <time>2025-10-19T08:48:47Z</time>
      </trkpt>
      <trkpt lat="43.97828" lon="1.99245">
        <ele>242.39</ele>
        <time>2025-10-19T08:48:57Z</time>
      </trkpt>
      <trkpt lat="43.9784" lon="1.99245">
        <ele>239.99</ele>
        <time>2025-10-19T08:49:08Z</time>
      </trkpt>
      <trkpt lat="43.97851" lon="1.99246">
        <ele>238.54</ele>
        <time>2025-10-19T08:49:20Z</time>
      </trkpt>
      <trkpt lat="43.97863" lon="1.99246">
        <ele>237.1</ele>
        <time>2025-10-19T08:49:30Z</time>
      </trkpt>
      <trkpt lat="43.97875" lon="1.99246">
        <ele>236.14</ele>
        <time>2025-10-19T08:49:41Z</time>
      </trkpt>
      <trkpt lat="43.97886" lon="1.99245">
        <ele>236.62</ele>
        <time>2025-10-19T08:49:50Z</time>
      </trkpt>
      <trkpt lat="43.97899" lon="1.99238">
        <ele>235.66</ele>
        <time>2025-10-19T08:50:04Z</time>
      </trkpt>
      <trkpt lat="43.9791" lon="1.99232">
        <ele>236.14</ele>
        <time>2025-10-19T08:50:16Z</time>
      </trkpt>
      <trkpt lat="43.97922" lon="1.99224">
        <ele>238.06</ele>
        <time>2025-10-19T08:50:30Z</time>
      </trkpt>
      <trkpt lat="43.97933" lon="1.99217">
        <ele>239.51</ele>
        <time>2025-10-19T08:50:45Z</time>
      </trkpt>
      <trkpt lat="43.97944" lon="1.9921">
        <ele>240.95</ele>
        <time>2025-10-19T08:50:57Z</time>
      </trkpt>
      <trkpt lat="43.97954" lon="1.99203">
        <ele>244.79</ele>
        <time>2025-10-19T08:51:10Z</time>
      </trkpt>
      <trkpt lat="43.97966" lon="1.992">
        <ele>247.2</ele>
        <time>2025-10-19T08:51:25Z</time>
      </trkpt>
      <trkpt lat="43.97979" lon="1.99197">
        <ele>248.64</ele>
        <time>2025-10-19T08:51:40Z</time>
      </trkpt>
      <trkpt lat="43.97991" lon="1.99193">
        <ele>251.52</ele>
        <time>2025-10-19T08:52:02Z</time>
      </trkpt>
      <trkpt lat="43.98001" lon="1.992">
        <ele>250.56</ele>
        <time>2025-10-19T08:52:14Z</time>
      </trkpt>
      <trkpt lat="43.98005" lon="1.99213">
        <ele>249.12</ele>
        <time>2025-10-19T08:52:25Z</time>
      </trkpt>
      <trkpt lat="43.9801" lon="1.99226">
        <ele>249.12</ele>
        <time>2025-10-19T08:52:35Z</time>
      </trkpt>
      <trkpt lat="43.98016" lon="1.9924">
        <ele>250.56</ele>
        <time>2025-10-19T08:52:46Z</time>
      </trkpt>
      <trkpt lat="43.98021" lon="1.99251">
        <ele>251.52</ele>
        <time>2025-10-19T08:52:55Z</time>
      </trkpt>
      <trkpt lat="43.9803" lon="1.99258">
        <ele>252.48</ele>
        <time>2025-10-19T08:53:06Z</time>
      </trkpt>
      <trkpt lat="43.98042" lon="1.99259">
        <ele>254.41</ele>
        <time>2025-10-19T08:53:18Z</time>
      </trkpt>
      <trkpt lat="43.98048" lon="1.9927">
        <ele>254.41</ele>
        <time>2025-10-19T08:53:27Z</time>
      </trkpt>
      <trkpt lat="43.98054" lon="1.99282">
        <ele>253.93</ele>
        <time>2025-10-19T08:53:36Z</time>
      </trkpt>
      <trkpt lat="43.98059" lon="1.99294">
        <ele>254.41</ele>
        <time>2025-10-19T08:53:45Z</time>
      </trkpt>
      <trkpt lat="43.98064" lon="1.99306">
        <ele>254.41</ele>
        <time>2025-10-19T08:53:53Z</time>
      </trkpt>
      <trkpt lat="43.98067" lon="1.99319">
        <ele>253.93</ele>
        <time>2025-10-19T08:54:02Z</time>
      </trkpt>
      <trkpt lat="43.9807" lon="1.99332">
        <ele>253.93</ele>
        <time>2025-10-19T08:54:11Z</time>
      </trkpt>
      <trkpt lat="43.98073" lon="1.99345">
        <ele>253.93</ele>
        <time>2025-10-19T08:54:20Z</time>
      </trkpt>
      <trkpt lat="43.98076" lon="1.99359">
        <ele>254.41</ele>
        <time>2025-10-19T08:54:29Z</time>
      </trkpt>
      <trkpt lat="43.98079" lon="1.99372">
        <ele>252.96</ele>
        <time>2025-10-19T08:54:38Z</time>
      </trkpt>
      <trkpt lat="43.98082" lon="1.99385">
        <ele>253.44</ele>
        <time>2025-10-19T08:54:47Z</time>
      </trkpt>
      <trkpt lat="43.98087" lon="1.99397">
        <ele>254.41</ele>
        <time>2025-10-19T08:54:56Z</time>
      </trkpt>
      <trkpt lat="43.98095" lon="1.99404">
        <ele>254.89</ele>
        <time>2025-10-19T08:55:04Z</time>
      </trkpt>
      <trkpt lat="43.98104" lon="1.99409">
        <ele>254.89</ele>
        <time>2025-10-19T08:55:13Z</time>
      </trkpt>
      <trkpt lat="43.98115" lon="1.99414">
        <ele>255.85</ele>
        <time>2025-10-19T08:55:22Z</time>
      </trkpt>
      <trkpt lat="43.98125" lon="1.99417">
        <ele>255.37</ele>
        <time>2025-10-19T08:55:31Z</time>
      </trkpt>
      <trkpt lat="43.98135" lon="1.99422">
        <ele>255.37</ele>
        <time>2025-10-19T08:55:40Z</time>
      </trkpt>
      <trkpt lat="43.98144" lon="1.99426">
        <ele>255.85</ele>
        <time>2025-10-19T08:55:49Z</time>
      </trkpt>
      <trkpt lat="43.98154" lon="1.9943">
        <ele>255.85</ele>
        <time>2025-10-19T08:55:57Z</time>
      </trkpt>
      <trkpt lat="43.98163" lon="1.99434">
        <ele>255.85</ele>
        <time>2025-10-19T08:56:05Z</time>
      </trkpt>
      <trkpt lat="43.98172" lon="1.99438">
        <ele>257.29</ele>
        <time>2025-10-19T08:56:13Z</time>
      </trkpt>
      <trkpt lat="43.98181" lon="1.99443">
        <ele>257.29</ele>
        <time>2025-10-19T08:56:21Z</time>
      </trkpt>
      <trkpt lat="43.9819" lon="1.99448">
        <ele>257.29</ele>
        <time>2025-10-19T08:56:29Z</time>
      </trkpt>
      <trkpt lat="43.98199" lon="1.99453">
        <ele>256.33</ele>
        <time>2025-10-19T08:56:38Z</time>
      </trkpt>
      <trkpt lat="43.98209" lon="1.99457">
        <ele>257.29</ele>
        <time>2025-10-19T08:56:46Z</time>
      </trkpt>
      <trkpt lat="43.98218" lon="1.99461">
        <ele>257.77</ele>
        <time>2025-10-19T08:56:54Z</time>
      </trkpt>
      <trkpt lat="43.98228" lon="1.99464">
        <ele>256.33</ele>
        <time>2025-10-19T08:57:03Z</time>
      </trkpt>
      <trkpt lat="43.98237" lon="1.99467">
        <ele>255.37</ele>
        <time>2025-10-19T08:57:12Z</time>
      </trkpt>
      <trkpt lat="43.98247" lon="1.9947">
        <ele>254.89</ele>
        <time>2025-10-19T08:57:21Z</time>
      </trkpt>
      <trkpt lat="43.98256" lon="1.99472">
        <ele>255.37</ele>
        <time>2025-10-19T08:57:29Z</time>
      </trkpt>
      <trkpt lat="43.98266" lon="1.99475">
        <ele>254.89</ele>
        <time>2025-10-19T08:57:38Z</time>
      </trkpt>
      <trkpt lat="43.98275" lon="1.99477">
        <ele>254.89</ele>
        <time>2025-10-19T08:57:47Z</time>
      </trkpt>
      <trkpt lat="43.98285" lon="1.99479">
        <ele>255.37</ele>
        <time>2025-10-19T08:57:55Z</time>
      </trkpt>
      <trkpt lat="43.98294" lon="1.99481">
        <ele>255.37</ele>
        <time>2025-10-19T08:58:04Z</time>
      </trkpt>
      <trkpt lat="43.98303" lon="1.99484">
        <ele>255.37</ele>
        <time>2025-10-19T08:58:13Z</time>
      </trkpt>
      <trkpt lat="43.98313" lon="1.99486">
        <ele>255.85</ele>
        <time>2025-10-19T08:58:23Z</time>
      </trkpt>
      <trkpt lat="43.98324" lon="1.99489">
        <ele>256.81</ele>
        <time>2025-10-19T08:58:35Z</time>
      </trkpt>
      <trkpt lat="43.98334" lon="1.99492">
        <ele>258.73</ele>
        <time>2025-10-19T08:58:45Z</time>
      </trkpt>
      <trkpt lat="43.98345" lon="1.99494">
        <ele>259.21</ele>
        <time>2025-10-19T08:58:55Z</time>
      </trkpt>
      <trkpt lat="43.98355" lon="1.99496">
        <ele>260.17</ele>
        <time>2025-10-19T08:59:05Z</time>
      </trkpt>
      <trkpt lat="43.98364" lon="1.99497">
        <ele>260.65</ele>
        <time>2025-10-19T08:59:34Z</time>
      </trkpt>
      <trkpt lat="43.98374" lon="1.995">
        <ele>260.65</ele>
        <time>2025-10-19T08:59:57Z</time>
      </trkpt>
      <trkpt lat="43.98384" lon="1.99502">
        <ele>261.62</ele>
        <time>2025-10-19T09:00:09Z</time>
      </trkpt>
      <trkpt lat="43.98394" lon="1.99502">
        <ele>262.58</ele>
        <time>2025-10-19T09:00:24Z</time>
      </trkpt>
      <trkpt lat="43.98404" lon="1.99505">
        <ele>263.06</ele>
        <time>2025-10-19T09:00:34Z</time>
      </trkpt>
      <trkpt lat="43.98416" lon="1.99507">
        <ele>262.58</ele>
        <time>2025-10-19T09:00:45Z</time>
      </trkpt>
      <trkpt lat="43.98426" lon="1.99511">
        <ele>263.54</ele>
        <time>2025-10-19T09:00:55Z</time>
      </trkpt>
      <trkpt lat="43.98435" lon="1.99515">
        <ele>263.06</ele>
        <time>2025-10-19T09:01:04Z</time>
      </trkpt>
      <trkpt lat="43.98446" lon="1.99518">
        <ele>263.06</ele>
        <time>2025-10-19T09:01:14Z</time>
      </trkpt>
      <trkpt lat="43.98456" lon="1.99523">
        <ele>263.06</ele>
        <time>2025-10-19T09:01:25Z</time>
      </trkpt>
      <trkpt lat="43.98465" lon="1.99528">
        <ele>263.06</ele>
        <time>2025-10-19T09:01:34Z</time>
      </trkpt>
      <trkpt lat="43.98475" lon="1.99532">
        <ele>263.06</ele>
        <time>2025-10-19T09:01:43Z</time>
      </trkpt>
      <trkpt lat="43.98484" lon="1.99537">
        <ele>263.54</ele>
        <time>2025-10-19T09:01:52Z</time>
      </trkpt>
      <trkpt lat="43.98494" lon="1.99543">
        <ele>264.02</ele>
        <time>2025-10-19T09:02:01Z</time>
      </trkpt>
      <trkpt lat="43.98503" lon="1.99548">
        <ele>264.02</ele>
        <time>2025-10-19T09:02:10Z</time>
      </trkpt>
      <trkpt lat="43.98512" lon="1.99553">
        <ele>264.02</ele>
        <time>2025-10-19T09:02:19Z</time>
      </trkpt>
      <trkpt lat="43.98522" lon="1.99557">
        <ele>264.5</ele>
        <time>2025-10-19T09:02:28Z</time>
      </trkpt>
      <trkpt lat="43.98531" lon="1.99562">
        <ele>264.98</ele>
        <time>2025-10-19T09:02:36Z</time>
      </trkpt>
      <trkpt lat="43.9854" lon="1.99566">
        <ele>265.46</ele>
        <time>2025-10-19T09:02:45Z</time>
      </trkpt>
      <trkpt lat="43.9855" lon="1.9957">
        <ele>265.46</ele>
        <time>2025-10-19T09:02:54Z</time>
      </trkpt>
      <trkpt lat="43.98558" lon="1.99574">
        <ele>265.46</ele>
        <time>2025-10-19T09:03:03Z</time>
      </trkpt>
      <trkpt lat="43.98569" lon="1.9958">
        <ele>265.94</ele>
        <time>2025-10-19T09:03:13Z</time>
      </trkpt>
      <trkpt lat="43.98579" lon="1.99584">
        <ele>265.94</ele>
        <time>2025-10-19T09:03:23Z</time>
      </trkpt>
      <trkpt lat="43.98589" lon="1.99586">
        <ele>264.98</ele>
        <time>2025-10-19T09:03:33Z</time>
      </trkpt>
      <trkpt lat="43.98599" lon="1.99589">
        <ele>264.5</ele>
        <time>2025-10-19T09:03:43Z</time>
      </trkpt>
      <trkpt lat="43.98608" lon="1.99589">
        <ele>264.5</ele>
        <time>2025-10-19T09:03:53Z</time>
      </trkpt>
      <trkpt lat="43.98618" lon="1.99586">
        <ele>264.5</ele>
        <time>2025-10-19T09:04:03Z</time>
      </trkpt>
      <trkpt lat="43.98629" lon="1.99581">
        <ele>263.06</ele>
        <time>2025-10-19T09:04:14Z</time>
      </trkpt>
      <trkpt lat="43.98639" lon="1.99575">
        <ele>261.62</ele>
        <time>2025-10-19T09:04:25Z</time>
      </trkpt>
      <trkpt lat="43.9865" lon="1.99569">
        <ele>261.62</ele>
        <time>2025-10-19T09:04:35Z</time>
      </trkpt>
      <trkpt lat="43.98661" lon="1.99564">
        <ele>261.14</ele>
        <time>2025-10-19T09:04:44Z</time>
      </trkpt>
      <trkpt lat="43.98671" lon="1.99558">
        <ele>261.14</ele>
        <time>2025-10-19T09:04:53Z</time>
      </trkpt>
      <trkpt lat="43.9868" lon="1.99553">
        <ele>261.14</ele>
        <time>2025-10-19T09:05:01Z</time>
      </trkpt>
      <trkpt lat="43.98689" lon="1.99548">
        <ele>260.65</ele>
        <time>2025-10-19T09:05:10Z</time>
      </trkpt>
      <trkpt lat="43.98698" lon="1.99543">
        <ele>259.69</ele>
        <time>2025-10-19T09:05:19Z</time>
      </trkpt>
      <trkpt lat="43.98709" lon="1.99537">
        <ele>258.73</ele>
        <time>2025-10-19T09:05:29Z</time>
      </trkpt>
      <trkpt lat="43.98719" lon="1.99532">
        <ele>258.25</ele>
        <time>2025-10-19T09:05:39Z</time>
      </trkpt>
      <trkpt lat="43.98729" lon="1.99527">
        <ele>257.77</ele>
        <time>2025-10-19T09:05:48Z</time>
      </trkpt>
      <trkpt lat="43.9874" lon="1.99523">
        <ele>257.77</ele>
        <time>2025-10-19T09:05:59Z</time>
      </trkpt>
      <trkpt lat="43.98751" lon="1.9952">
        <ele>257.29</ele>
        <time>2025-10-19T09:06:09Z</time>
      </trkpt>
      <trkpt lat="43.98763" lon="1.99519">
        <ele>255.37</ele>
        <time>2025-10-19T09:06:22Z</time>
      </trkpt>
      <trkpt lat="43.98777" lon="1.99517">
        <ele>253.93</ele>
        <time>2025-10-19T09:06:33Z</time>
      </trkpt>
      <trkpt lat="43.98789" lon="1.99515">
        <ele>255.37</ele>
        <time>2025-10-19T09:06:43Z</time>
      </trkpt>
      <trkpt lat="43.98801" lon="1.99514">
        <ele>254.41</ele>
        <time>2025-10-19T09:06:54Z</time>
      </trkpt>
      <trkpt lat="43.98812" lon="1.99512">
        <ele>253.93</ele>
        <time>2025-10-19T09:07:04Z</time>
      </trkpt>
      <trkpt lat="43.98823" lon="1.99513">
        <ele>254.41</ele>
        <time>2025-10-19T09:07:13Z</time>
      </trkpt>
      <trkpt lat="43.98833" lon="1.99512">
        <ele>252.96</ele>
        <time>2025-10-19T09:07:23Z</time>
      </trkpt>
      <trkpt lat="43.98846" lon="1.9951">
        <ele>252.48</ele>
        <time>2025-10-19T09:07:39Z</time>
      </trkpt>
      <trkpt lat="43.98859" lon="1.99519">
        <ele>254.41</ele>
        <time>2025-10-19T09:07:53Z</time>
      </trkpt>
      <trkpt lat="43.98859" lon="1.99535">
        <ele>256.81</ele>
        <time>2025-10-19T09:08:05Z</time>
      </trkpt>
      <trkpt lat="43.98859" lon="1.99553">
        <ele>261.62</ele>
        <time>2025-10-19T09:08:19Z</time>
      </trkpt>
      <trkpt lat="43.98862" lon="1.99574">
        <ele>262.58</ele>
        <time>2025-10-19T09:08:33Z</time>
      </trkpt>
      <trkpt lat="43.98867" lon="1.99597">
        <ele>259.69</ele>
        <time>2025-10-19T09:08:49Z</time>
      </trkpt>
      <trkpt lat="43.98876" lon="1.99613">
        <ele>257.29</ele>
        <time>2025-10-19T09:09:03Z</time>
      </trkpt>
      <trkpt lat="43.98887" lon="1.99624">
        <ele>253.93</ele>
        <time>2025-10-19T09:09:17Z</time>
      </trkpt>
      <trkpt lat="43.98896" lon="1.99638">
        <ele>249.6</ele>
        <time>2025-10-19T09:09:33Z</time>
      </trkpt>
      <trkpt lat="43.98909" lon="1.99648">
        <ele>248.64</ele>
        <time>2025-10-19T09:09:45Z</time>
      </trkpt>
      <trkpt lat="43.98927" lon="1.99654">
        <ele>251.04</ele>
        <time>2025-10-19T09:09:56Z</time>
      </trkpt>
      <trkpt lat="43.98941" lon="1.99664">
        <ele>252.96</ele>
        <time>2025-10-19T09:10:08Z</time>
      </trkpt>
      <trkpt lat="43.98951" lon="1.99676">
        <ele>252.96</ele>
        <time>2025-10-19T09:10:22Z</time>
      </trkpt>
      <trkpt lat="43.98957" lon="1.9969">
        <ele>252.96</ele>
        <time>2025-10-19T09:10:33Z</time>
      </trkpt>
      <trkpt lat="43.98964" lon="1.99701">
        <ele>252.48</ele>
        <time>2025-10-19T09:10:45Z</time>
      </trkpt>
      <trkpt lat="43.98974" lon="1.99714">
        <ele>252</ele>
        <time>2025-10-19T09:10:59Z</time>
      </trkpt>
      <trkpt lat="43.98987" lon="1.99725">
        <ele>252.96</ele>
        <time>2025-10-19T09:11:11Z</time>
      </trkpt>
      <trkpt lat="43.99002" lon="1.99733">
        <ele>255.37</ele>
        <time>2025-10-19T09:11:23Z</time>
      </trkpt>
      <trkpt lat="43.99013" lon="1.99739">
        <ele>254.89</ele>
        <time>2025-10-19T09:11:34Z</time>
      </trkpt>
      <trkpt lat="43.99028" lon="1.99744">
        <ele>252</ele>
        <time>2025-10-19T09:11:47Z</time>
      </trkpt>
      <trkpt lat="43.99042" lon="1.99737">
        <ele>250.08</ele>
        <time>2025-10-19T09:11:59Z</time>
      </trkpt>
      <trkpt lat="43.99051" lon="1.99727">
        <ele>249.12</ele>
        <time>2025-10-19T09:12:11Z</time>
      </trkpt>
      <trkpt lat="43.9906" lon="1.99717">
        <ele>250.08</ele>
        <time>2025-10-19T09:12:21Z</time>
      </trkpt>
      <trkpt lat="43.99069" lon="1.99703">
        <ele>249.12</ele>
        <time>2025-10-19T09:12:32Z</time>
      </trkpt>
      <trkpt lat="43.99074" lon="1.99689">
        <ele>247.68</ele>
        <time>2025-10-19T09:12:44Z</time>
      </trkpt>
      <trkpt lat="43.99083" lon="1.99675">
        <ele>245.75</ele>
        <time>2025-10-19T09:12:55Z</time>
      </trkpt>
      <trkpt lat="43.99091" lon="1.9966">
        <ele>243.83</ele>
        <time>2025-10-19T09:13:07Z</time>
      </trkpt>
      <trkpt lat="43.99097" lon="1.99643">
        <ele>241.43</ele>
        <time>2025-10-19T09:13:21Z</time>
      </trkpt>
      <trkpt lat="43.99102" lon="1.99626">
        <ele>239.99</ele>
        <time>2025-10-19T09:13:32Z</time>
      </trkpt>
      <trkpt lat="43.99104" lon="1.99611">
        <ele>237.58</ele>
        <time>2025-10-19T09:13:42Z</time>
      </trkpt>
      <trkpt lat="43.99108" lon="1.99594">
        <ele>236.62</ele>
        <time>2025-10-19T09:13:54Z</time>
      </trkpt>
      <trkpt lat="43.99109" lon="1.99577">
        <ele>236.14</ele>
        <time>2025-10-19T09:14:05Z</time>
      </trkpt>
      <trkpt lat="43.99112" lon="1.99555">
        <ele>237.58</ele>
        <time>2025-10-19T09:14:18Z</time>
      </trkpt>
      <trkpt lat="43.99114" lon="1.99535">
        <ele>238.54</ele>
        <time>2025-10-19T09:14:32Z</time>
      </trkpt>
      <trkpt lat="43.99118" lon="1.99515">
        <ele>238.06</ele>
        <time>2025-10-19T09:14:44Z</time>
      </trkpt>
      <trkpt lat="43.99124" lon="1.99501">
        <ele>237.1</ele>
        <time>2025-10-19T09:14:55Z</time>
      </trkpt>
      <trkpt lat="43.9913" lon="1.99487">
        <ele>236.62</ele>
        <time>2025-10-19T09:15:05Z</time>
      </trkpt>
      <trkpt lat="43.99134" lon="1.99473">
        <ele>236.14</ele>
        <time>2025-10-19T09:15:14Z</time>
      </trkpt>
      <trkpt lat="43.99139" lon="1.99458">
        <ele>236.62</ele>
        <time>2025-10-19T09:15:23Z</time>
      </trkpt>
      <trkpt lat="43.99143" lon="1.99445">
        <ele>236.14</ele>
        <time>2025-10-19T09:15:32Z</time>
      </trkpt>
      <trkpt lat="43.99147" lon="1.9943">
        <ele>236.62</ele>
        <time>2025-10-19T09:15:41Z</time>
      </trkpt>
      <trkpt lat="43.9915" lon="1.99413">
        <ele>236.62</ele>
        <time>2025-10-19T09:15:51Z</time>
      </trkpt>
      <trkpt lat="43.99154" lon="1.99399">
        <ele>236.62</ele>
        <time>2025-10-19T09:16:01Z</time>
      </trkpt>
      <trkpt lat="43.99154" lon="1.99381">
        <ele>235.18</ele>
        <time>2025-10-19T09:16:11Z</time>
      </trkpt>
      <trkpt lat="43.99152" lon="1.99368">
        <ele>234.22</ele>
        <time>2025-10-19T09:16:20Z</time>
      </trkpt>
      <trkpt lat="43.99149" lon="1.99355">
        <ele>234.7</ele>
        <time>2025-10-19T09:16:31Z</time>
      </trkpt>
      <trkpt lat="43.99143" lon="1.9934">
        <ele>235.66</ele>
        <time>2025-10-19T09:16:42Z</time>
      </trkpt>
      <trkpt lat="43.99137" lon="1.99322">
        <ele>235.66</ele>
        <time>2025-10-19T09:16:55Z</time>
      </trkpt>
      <trkpt lat="43.99132" lon="1.99308">
        <ele>234.22</ele>
        <time>2025-10-19T09:18:10Z</time>
      </trkpt>
      <trkpt lat="43.99123" lon="1.99303">
        <ele>235.66</ele>
        <time>2025-10-19T09:18:26Z</time>
      </trkpt>
      <trkpt lat="43.99112" lon="1.99296">
        <ele>236.62</ele>
        <time>2025-10-19T09:18:43Z</time>
      </trkpt>
      <trkpt lat="43.99099" lon="1.99287">
        <ele>237.58</ele>
        <time>2025-10-19T09:18:57Z</time>
      </trkpt>
      <trkpt lat="43.99087" lon="1.99272">
        <ele>238.06</ele>
        <time>2025-10-19T09:19:16Z</time>
      </trkpt>
      <trkpt lat="43.99081" lon="1.99263">
        <ele>239.51</ele>
        <time>2025-10-19T09:19:38Z</time>
      </trkpt>
      <trkpt lat="43.99066" lon="1.99254">
        <ele>241.43</ele>
        <time>2025-10-19T09:20:01Z</time>
      </trkpt>
      <trkpt lat="43.99049" lon="1.99254">
        <ele>243.83</ele>
        <time>2025-10-19T09:20:18Z</time>
      </trkpt>
      <trkpt lat="43.99037" lon="1.99242">
        <ele>244.31</ele>
        <time>2025-10-19T09:20:36Z</time>
      </trkpt>
      <trkpt lat="43.99025" lon="1.99234">
        <ele>243.83</ele>
        <time>2025-10-19T09:20:51Z</time>
      </trkpt>
      <trkpt lat="43.99011" lon="1.99233">
        <ele>242.87</ele>
        <time>2025-10-19T09:21:07Z</time>
      </trkpt>
      <trkpt lat="43.99" lon="1.99235">
        <ele>238.06</ele>
        <time>2025-10-19T09:21:20Z</time>
      </trkpt>
      <trkpt lat="43.98986" lon="1.99231">
        <ele>234.7</ele>
        <time>2025-10-19T09:21:34Z</time>
      </trkpt>
      <trkpt lat="43.98972" lon="1.99231">
        <ele>230.37</ele>
        <time>2025-10-19T09:21:49Z</time>
      </trkpt>
      <trkpt lat="43.98957" lon="1.99231">
        <ele>233.74</ele>
        <time>2025-10-19T09:22:03Z</time>
      </trkpt>
      <trkpt lat="43.98943" lon="1.99229">
        <ele>235.18</ele>
        <time>2025-10-19T09:22:16Z</time>
      </trkpt>
      <trkpt lat="43.98928" lon="1.99226">
        <ele>237.58</ele>
        <time>2025-10-19T09:22:30Z</time>
      </trkpt>
      <trkpt lat="43.98916" lon="1.99226">
        <ele>233.26</ele>
        <time>2025-10-19T09:22:44Z</time>
      </trkpt>
      <trkpt lat="43.98903" lon="1.99225">
        <ele>230.37</ele>
        <time>2025-10-19T09:22:58Z</time>
      </trkpt>
      <trkpt lat="43.98886" lon="1.99224">
        <ele>231.33</ele>
        <time>2025-10-19T09:23:12Z</time>
      </trkpt>
      <trkpt lat="43.98872" lon="1.9922">
        <ele>237.58</ele>
        <time>2025-10-19T09:23:25Z</time>
      </trkpt>
      <trkpt lat="43.98862" lon="1.99206">
        <ele>245.27</ele>
        <time>2025-10-19T09:23:35Z</time>
      </trkpt>
      <trkpt lat="43.98856" lon="1.9919">
        <ele>250.56</ele>
        <time>2025-10-19T09:23:46Z</time>
      </trkpt>
      <trkpt lat="43.9885" lon="1.99177">
        <ele>250.56</ele>
        <time>2025-10-19T09:23:58Z</time>
      </trkpt>
      <trkpt lat="43.98842" lon="1.99167">
        <ele>252</ele>
        <time>2025-10-19T09:24:09Z</time>
      </trkpt>
      <trkpt lat="43.98834" lon="1.99155">
        <ele>252</ele>
        <time>2025-10-19T09:24:20Z</time>
      </trkpt>
      <trkpt lat="43.98824" lon="1.99144">
        <ele>251.52</ele>
        <time>2025-10-19T09:24:32Z</time>
      </trkpt>
      <trkpt lat="43.98814" lon="1.99133">
        <ele>252.96</ele>
        <time>2025-10-19T09:24:44Z</time>
      </trkpt>
      <trkpt lat="43.98801" lon="1.99119">
        <ele>252</ele>
        <time>2025-10-19T09:24:56Z</time>
      </trkpt>
      <trkpt lat="43.98791" lon="1.99105">
        <ele>251.04</ele>
        <time>2025-10-19T09:25:07Z</time>
      </trkpt>
      <trkpt lat="43.98781" lon="1.99089">
        <ele>252.96</ele>
        <time>2025-10-19T09:25:19Z</time>
      </trkpt>
      <trkpt lat="43.98772" lon="1.99078">
        <ele>252.48</ele>
        <time>2025-10-19T09:25:29Z</time>
      </trkpt>
      <trkpt lat="43.98761" lon="1.99065">
        <ele>252</ele>
        <time>2025-10-19T09:25:40Z</time>
      </trkpt>
      <trkpt lat="43.98752" lon="1.99055">
        <ele>250.08</ele>
        <time>2025-10-19T09:25:52Z</time>
      </trkpt>
      <trkpt lat="43.98743" lon="1.99044">
        <ele>247.68</ele>
        <time>2025-10-19T09:26:02Z</time>
      </trkpt>
      <trkpt lat="43.98735" lon="1.99035">
        <ele>245.75</ele>
        <time>2025-10-19T09:26:13Z</time>
      </trkpt>
      <trkpt lat="43.98725" lon="1.99021">
        <ele>246.23</ele>
        <time>2025-10-19T09:26:24Z</time>
      </trkpt>
      <trkpt lat="43.98715" lon="1.99006">
        <ele>245.75</ele>
        <time>2025-10-19T09:26:36Z</time>
      </trkpt>
      <trkpt lat="43.98707" lon="1.98995">
        <ele>246.23</ele>
        <time>2025-10-19T09:26:45Z</time>
      </trkpt>
      <trkpt lat="43.987" lon="1.98985">
        <ele>249.12</ele>
        <time>2025-10-19T09:26:53Z</time>
      </trkpt>
      <trkpt lat="43.98694" lon="1.98977">
        <ele>252</ele>
        <time>2025-10-19T09:27:01Z</time>
      </trkpt>
      <trkpt lat="43.98687" lon="1.98968">
        <ele>253.44</ele>
        <time>2025-10-19T09:27:09Z</time>
      </trkpt>
      <trkpt lat="43.98681" lon="1.98959">
        <ele>254.41</ele>
        <time>2025-10-19T09:27:17Z</time>
      </trkpt>
      <trkpt lat="43.98674" lon="1.9895">
        <ele>254.89</ele>
        <time>2025-10-19T09:27:25Z</time>
      </trkpt>
      <trkpt lat="43.98667" lon="1.98941">
        <ele>255.37</ele>
        <time>2025-10-19T09:27:33Z</time>
      </trkpt>
      <trkpt lat="43.98662" lon="1.98931">
        <ele>255.85</ele>
        <time>2025-10-19T09:27:41Z</time>
      </trkpt>
      <trkpt lat="43.98655" lon="1.9892">
        <ele>256.33</ele>
        <time>2025-10-19T09:27:50Z</time>
      </trkpt>
      <trkpt lat="43.98648" lon="1.98911">
        <ele>256.81</ele>
        <time>2025-10-19T09:27:59Z</time>
      </trkpt>
      <trkpt lat="43.98642" lon="1.98902">
        <ele>257.77</ele>
        <time>2025-10-19T09:28:08Z</time>
      </trkpt>
      <trkpt lat="43.98635" lon="1.98894">
        <ele>257.29</ele>
        <time>2025-10-19T09:28:16Z</time>
      </trkpt>
      <trkpt lat="43.98627" lon="1.98887">
        <ele>256.81</ele>
        <time>2025-10-19T09:28:25Z</time>
      </trkpt>
      <trkpt lat="43.98619" lon="1.98879">
        <ele>256.81</ele>
        <time>2025-10-19T09:28:34Z</time>
      </trkpt>
      <trkpt lat="43.98611" lon="1.98872">
        <ele>258.25</ele>
        <time>2025-10-19T09:28:43Z</time>
      </trkpt>
      <trkpt lat="43.98603" lon="1.98864">
        <ele>258.73</ele>
        <time>2025-10-19T09:28:53Z</time>
      </trkpt>
      <trkpt lat="43.98594" lon="1.98857">
        <ele>260.65</ele>
        <time>2025-10-19T09:29:02Z</time>
      </trkpt>
      <trkpt lat="43.98584" lon="1.98852">
        <ele>261.62</ele>
        <time>2025-10-19T09:29:12Z</time>
      </trkpt>
      <trkpt lat="43.98575" lon="1.9885">
        <ele>261.62</ele>
        <time>2025-10-19T09:29:22Z</time>
      </trkpt>
      <trkpt lat="43.98566" lon="1.98845">
        <ele>263.06</ele>
        <time>2025-10-19T09:29:32Z</time>
      </trkpt>
      <trkpt lat="43.98558" lon="1.9884">
        <ele>264.02</ele>
        <time>2025-10-19T09:29:41Z</time>
      </trkpt>
      <trkpt lat="43.9855" lon="1.98837">
        <ele>263.06</ele>
        <time>2025-10-19T09:29:52Z</time>
      </trkpt>
      <trkpt lat="43.98542" lon="1.98832">
        <ele>263.06</ele>
        <time>2025-10-19T09:30:00Z</time>
      </trkpt>
      <trkpt lat="43.98533" lon="1.98827">
        <ele>263.54</ele>
        <time>2025-10-19T09:30:08Z</time>
      </trkpt>
      <trkpt lat="43.98527" lon="1.98819">
        <ele>264.02</ele>
        <time>2025-10-19T09:30:16Z</time>
      </trkpt>
      <trkpt lat="43.98518" lon="1.98812">
        <ele>264.5</ele>
        <time>2025-10-19T09:30:24Z</time>
      </trkpt>
      <trkpt lat="43.9851" lon="1.98805">
        <ele>264.02</ele>
        <time>2025-10-19T09:30:32Z</time>
      </trkpt>
      <trkpt lat="43.98501" lon="1.98799">
        <ele>264.02</ele>
        <time>2025-10-19T09:30:56Z</time>
      </trkpt>
      <trkpt lat="43.98494" lon="1.98793">
        <ele>263.54</ele>
        <time>2025-10-19T09:31:04Z</time>
      </trkpt>
      <trkpt lat="43.98486" lon="1.98788">
        <ele>262.58</ele>
        <time>2025-10-19T09:31:12Z</time>
      </trkpt>
      <trkpt lat="43.98477" lon="1.98784">
        <ele>260.65</ele>
        <time>2025-10-19T09:31:20Z</time>
      </trkpt>
      <trkpt lat="43.98468" lon="1.98779">
        <ele>259.69</ele>
        <time>2025-10-19T09:31:28Z</time>
      </trkpt>
      <trkpt lat="43.98459" lon="1.98774">
        <ele>258.73</ele>
        <time>2025-10-19T09:31:36Z</time>
      </trkpt>
      <trkpt lat="43.9845" lon="1.98768">
        <ele>258.73</ele>
        <time>2025-10-19T09:31:44Z</time>
      </trkpt>
      <trkpt lat="43.9844" lon="1.98762">
        <ele>258.25</ele>
        <time>2025-10-19T09:31:52Z</time>
      </trkpt>
      <trkpt lat="43.98431" lon="1.98759">
        <ele>258.73</ele>
        <time>2025-10-19T09:32:00Z</time>
      </trkpt>
      <trkpt lat="43.98421" lon="1.98757">
        <ele>258.25</ele>
        <time>2025-10-19T09:32:08Z</time>
      </trkpt>
      <trkpt lat="43.98411" lon="1.98762">
        <ele>258.25</ele>
        <time>2025-10-19T09:32:16Z</time>
      </trkpt>
      <trkpt lat="43.98404" lon="1.98771">
        <ele>258.25</ele>
        <time>2025-10-19T09:32:24Z</time>
      </trkpt>
      <trkpt lat="43.984" lon="1.98785">
        <ele>255.85</ele>
        <time>2025-10-19T09:32:33Z</time>
      </trkpt>
      <trkpt lat="43.98397" lon="1.988">
        <ele>253.93</ele>
        <time>2025-10-19T09:32:43Z</time>
      </trkpt>
      <trkpt lat="43.98392" lon="1.98806">
        <ele>254.41</ele>
        <time>2025-10-19T09:36:08Z</time>
      </trkpt>
      <trkpt lat="43.98385" lon="1.98813">
        <ele>253.44</ele>
        <time>2025-10-19T09:36:29Z</time>
      </trkpt>
      <trkpt lat="43.98381" lon="1.98818">
        <ele>250.56</ele>
        <time>2025-10-19T09:36:44Z</time>
      </trkpt>
      <trkpt lat="43.98374" lon="1.98812">
        <ele>249.6</ele>
        <time>2025-10-19T09:36:53Z</time>
      </trkpt>
      <trkpt lat="43.98366" lon="1.98808">
        <ele>248.16</ele>
        <time>2025-10-19T09:37:05Z</time>
      </trkpt>
      <trkpt lat="43.98357" lon="1.98799">
        <ele>247.68</ele>
        <time>2025-10-19T09:37:17Z</time>
      </trkpt>
      <trkpt lat="43.98346" lon="1.98787">
        <ele>250.08</ele>
        <time>2025-10-19T09:37:29Z</time>
      </trkpt>
      <trkpt lat="43.98335" lon="1.98778">
        <ele>249.6</ele>
        <time>2025-10-19T09:37:40Z</time>
      </trkpt>
      <trkpt lat="43.98326" lon="1.98767">
        <ele>248.16</ele>
        <time>2025-10-19T09:37:50Z</time>
      </trkpt>
      <trkpt lat="43.98319" lon="1.98754">
        <ele>246.72</ele>
        <time>2025-10-19T09:38:01Z</time>
      </trkpt>
      <trkpt lat="43.98311" lon="1.98743">
        <ele>246.23</ele>
        <time>2025-10-19T09:38:12Z</time>
      </trkpt>
      <trkpt lat="43.98303" lon="1.98732">
        <ele>243.35</ele>
        <time>2025-10-19T09:38:24Z</time>
      </trkpt>
      <trkpt lat="43.98297" lon="1.98721">
        <ele>243.35</ele>
        <time>2025-10-19T09:38:33Z</time>
      </trkpt>
      <trkpt lat="43.98289" lon="1.98711">
        <ele>241.43</ele>
        <time>2025-10-19T09:38:45Z</time>
      </trkpt>
      <trkpt lat="43.9828" lon="1.98698">
        <ele>241.91</ele>
        <time>2025-10-19T09:38:56Z</time>
      </trkpt>
      <trkpt lat="43.98271" lon="1.98686">
        <ele>241.91</ele>
        <time>2025-10-19T09:39:07Z</time>
      </trkpt>
      <trkpt lat="43.98263" lon="1.98674">
        <ele>242.87</ele>
        <time>2025-10-19T09:39:17Z</time>
      </trkpt>
      <trkpt lat="43.98253" lon="1.98666">
        <ele>241.91</ele>
        <time>2025-10-19T09:39:28Z</time>
      </trkpt>
      <trkpt lat="43.98242" lon="1.98658">
        <ele>239.99</ele>
        <time>2025-10-19T09:39:40Z</time>
      </trkpt>
      <trkpt lat="43.98232" lon="1.98648">
        <ele>238.54</ele>
        <time>2025-10-19T09:39:52Z</time>
      </trkpt>
      <trkpt lat="43.9822" lon="1.98632">
        <ele>238.54</ele>
        <time>2025-10-19T09:40:03Z</time>
      </trkpt>
      <trkpt lat="43.98211" lon="1.9862">
        <ele>239.99</ele>
        <time>2025-10-19T09:40:14Z</time>
      </trkpt>
      <trkpt lat="43.98201" lon="1.98614">
        <ele>239.51</ele>
        <time>2025-10-19T09:40:25Z</time>
      </trkpt>
      <trkpt lat="43.98192" lon="1.98607">
        <ele>239.51</ele>
        <time>2025-10-19T09:40:36Z</time>
      </trkpt>
      <trkpt lat="43.9818" lon="1.98598">
        <ele>241.43</ele>
        <time>2025-10-19T09:40:46Z</time>
      </trkpt>
      <trkpt lat="43.9817" lon="1.98592">
        <ele>240.95</ele>
        <time>2025-10-19T09:40:56Z</time>
      </trkpt>
      <trkpt lat="43.98159" lon="1.98586">
        <ele>239.51</ele>
        <time>2025-10-19T09:41:06Z</time>
      </trkpt>
      <trkpt lat="43.98152" lon="1.98574">
        <ele>239.51</ele>
        <time>2025-10-19T09:41:17Z</time>
      </trkpt>
      <trkpt lat="43.98149" lon="1.98559">
        <ele>239.02</ele>
        <time>2025-10-19T09:41:29Z</time>
      </trkpt>
      <trkpt lat="43.98151" lon="1.98541">
        <ele>239.99</ele>
        <time>2025-10-19T09:41:40Z</time>
      </trkpt>
      <trkpt lat="43.98151" lon="1.98526">
        <ele>239.99</ele>
        <time>2025-10-19T09:41:49Z</time>
      </trkpt>
      <trkpt lat="43.9815" lon="1.98511">
        <ele>240.47</ele>
        <time>2025-10-19T09:41:59Z</time>
      </trkpt>
      <trkpt lat="43.98146" lon="1.98496">
        <ele>240.95</ele>
        <time>2025-10-19T09:42:08Z</time>
      </trkpt>
      <trkpt lat="43.98136" lon="1.98488">
        <ele>242.87</ele>
        <time>2025-10-19T09:42:17Z</time>
      </trkpt>
      <trkpt lat="43.98127" lon="1.9848">
        <ele>241.91</ele>
        <time>2025-10-19T09:42:26Z</time>
      </trkpt>
      <trkpt lat="43.98115" lon="1.98473">
        <ele>240.47</ele>
        <time>2025-10-19T09:42:36Z</time>
      </trkpt>
      <trkpt lat="43.98104" lon="1.98467">
        <ele>238.54</ele>
        <time>2025-10-19T09:42:46Z</time>
      </trkpt>
      <trkpt lat="43.98092" lon="1.98467">
        <ele>241.43</ele>
        <time>2025-10-19T09:42:56Z</time>
      </trkpt>
      <trkpt lat="43.98082" lon="1.98474">
        <ele>243.35</ele>
        <time>2025-10-19T09:43:09Z</time>
      </trkpt>
      <trkpt lat="43.98068" lon="1.98473">
        <ele>239.51</ele>
        <time>2025-10-19T09:43:21Z</time>
      </trkpt>
      <trkpt lat="43.98059" lon="1.98472">
        <ele>236.14</ele>
        <time>2025-10-19T09:43:55Z</time>
      </trkpt>
      <trkpt lat="43.98058" lon="1.98491">
        <ele>236.62</ele>
        <time>2025-10-19T09:44:11Z</time>
      </trkpt>
      <trkpt lat="43.98068" lon="1.98507">
        <ele>234.22</ele>
        <time>2025-10-19T09:44:35Z</time>
      </trkpt>
      <trkpt lat="43.9806" lon="1.98518">
        <ele>228.45</ele>
        <time>2025-10-19T09:44:47Z</time>
      </trkpt>
      <trkpt lat="43.98056" lon="1.9853">
        <ele>226.53</ele>
        <time>2025-10-19T09:44:56Z</time>
      </trkpt>
      <trkpt lat="43.98048" lon="1.98538">
        <ele>223.16</ele>
        <time>2025-10-19T09:45:09Z</time>
      </trkpt>
      <trkpt lat="43.98036" lon="1.98544">
        <ele>228.93</ele>
        <time>2025-10-19T09:45:35Z</time>
      </trkpt>
      <trkpt lat="43.98027" lon="1.98534">
        <ele>231.81</ele>
        <time>2025-10-19T09:45:43Z</time>
      </trkpt>
      <trkpt lat="43.98018" lon="1.98527">
        <ele>232.3</ele>
        <time>2025-10-19T09:45:53Z</time>
      </trkpt>
      <trkpt lat="43.98007" lon="1.98531">
        <ele>228.93</ele>
        <time>2025-10-19T09:46:08Z</time>
      </trkpt>
      <trkpt lat="43.98001" lon="1.98534">
        <ele>227.01</ele>
        <time>2025-10-19T09:47:34Z</time>
      </trkpt>
      <trkpt lat="43.98" lon="1.98519">
        <ele>226.53</ele>
        <time>2025-10-19T09:47:49Z</time>
      </trkpt>
      <trkpt lat="43.97991" lon="1.98509">
        <ele>226.05</ele>
        <time>2025-10-19T09:48:20Z</time>
      </trkpt>
      <trkpt lat="43.97977" lon="1.98507">
        <ele>222.68</ele>
        <time>2025-10-19T09:48:40Z</time>
      </trkpt>
      <trkpt lat="43.97965" lon="1.985">
        <ele>226.53</ele>
        <time>2025-10-19T09:48:53Z</time>
      </trkpt>
      <trkpt lat="43.97967" lon="1.98486">
        <ele>226.05</ele>
        <time>2025-10-19T09:49:13Z</time>
      </trkpt>
      <trkpt lat="43.97972" lon="1.98473">
        <ele>225.57</ele>
        <time>2025-10-19T09:49:23Z</time>
      </trkpt>
      <trkpt lat="43.97974" lon="1.98457">
        <ele>226.53</ele>
        <time>2025-10-19T09:49:34Z</time>
      </trkpt>
      <trkpt lat="43.97979" lon="1.98442">
        <ele>226.53</ele>
        <time>2025-10-19T09:49:47Z</time>
      </trkpt>
      <trkpt lat="43.97978" lon="1.98425">
        <ele>228.93</ele>
        <time>2025-10-19T09:50:00Z</time>
      </trkpt>
      <trkpt lat="43.97975" lon="1.9841">
        <ele>230.37</ele>
        <time>2025-10-19T09:50:12Z</time>
      </trkpt>
      <trkpt lat="43.9797" lon="1.98397">
        <ele>233.26</ele>
        <time>2025-10-19T09:50:23Z</time>
      </trkpt>
      <trkpt lat="43.97966" lon="1.98384">
        <ele>235.66</ele>
        <time>2025-10-19T09:50:33Z</time>
      </trkpt>
      <trkpt lat="43.97963" lon="1.98371">
        <ele>237.58</ele>
        <time>2025-10-19T09:50:42Z</time>
      </trkpt>
      <trkpt lat="43.97969" lon="1.9836">
        <ele>238.54</ele>
        <time>2025-10-19T09:50:52Z</time>
      </trkpt>
      <trkpt lat="43.97978" lon="1.98351">
        <ele>239.02</ele>
        <time>2025-10-19T09:51:02Z</time>
      </trkpt>
      <trkpt lat="43.97986" lon="1.98341">
        <ele>239.51</ele>
        <time>2025-10-19T09:51:12Z</time>
      </trkpt>
      <trkpt lat="43.97993" lon="1.98331">
        <ele>239.51</ele>
        <time>2025-10-19T09:51:21Z</time>
      </trkpt>
      <trkpt lat="43.98002" lon="1.98325">
        <ele>239.02</ele>
        <time>2025-10-19T09:51:31Z</time>
      </trkpt>
      <trkpt lat="43.98007" lon="1.98308">
        <ele>239.02</ele>
        <time>2025-10-19T09:51:43Z</time>
      </trkpt>
      <trkpt lat="43.98014" lon="1.98296">
        <ele>239.02</ele>
        <time>2025-10-19T09:52:04Z</time>
      </trkpt>
      <trkpt lat="43.98009" lon="1.9828">
        <ele>241.43</ele>
        <time>2025-10-19T09:52:15Z</time>
      </trkpt>
      <trkpt lat="43.98004" lon="1.98267">
        <ele>242.87</ele>
        <time>2025-10-19T09:52:24Z</time>
      </trkpt>
      <trkpt lat="43.97999" lon="1.98255">
        <ele>243.35</ele>
        <time>2025-10-19T09:52:32Z</time>
      </trkpt>
      <trkpt lat="43.97993" lon="1.98245">
        <ele>244.31</ele>
        <time>2025-10-19T09:52:49Z</time>
      </trkpt>
      <trkpt lat="43.97994" lon="1.9823">
        <ele>243.83</ele>
        <time>2025-10-19T09:52:58Z</time>
      </trkpt>
      <trkpt lat="43.97994" lon="1.98217">
        <ele>242.87</ele>
        <time>2025-10-19T09:53:07Z</time>
      </trkpt>
      <trkpt lat="43.97992" lon="1.98202">
        <ele>241.43</ele>
        <time>2025-10-19T09:53:17Z</time>
      </trkpt>
      <trkpt lat="43.97991" lon="1.98187">
        <ele>239.99</ele>
        <time>2025-10-19T09:53:28Z</time>
      </trkpt>
      <trkpt lat="43.97991" lon="1.98171">
        <ele>239.02</ele>
        <time>2025-10-19T09:53:47Z</time>
      </trkpt>
      <trkpt lat="43.97993" lon="1.98154">
        <ele>238.06</ele>
        <time>2025-10-19T09:53:59Z</time>
      </trkpt>
      <trkpt lat="43.97994" lon="1.98138">
        <ele>237.58</ele>
        <time>2025-10-19T09:54:09Z</time>
      </trkpt>
      <trkpt lat="43.97995" lon="1.98121">
        <ele>237.1</ele>
        <time>2025-10-19T09:54:18Z</time>
      </trkpt>
      <trkpt lat="43.97995" lon="1.98105">
        <ele>237.1</ele>
        <time>2025-10-19T09:54:26Z</time>
      </trkpt>
      <trkpt lat="43.97995" lon="1.98089">
        <ele>237.1</ele>
        <time>2025-10-19T09:54:35Z</time>
      </trkpt>
      <trkpt lat="43.97997" lon="1.98074">
        <ele>234.7</ele>
        <time>2025-10-19T09:54:44Z</time>
      </trkpt>
      <trkpt lat="43.97997" lon="1.98059">
        <ele>233.74</ele>
        <time>2025-10-19T09:54:54Z</time>
      </trkpt>
      <trkpt lat="43.97997" lon="1.98044">
        <ele>234.22</ele>
        <time>2025-10-19T09:55:03Z</time>
      </trkpt>
      <trkpt lat="43.97996" lon="1.98029">
        <ele>234.7</ele>
        <time>2025-10-19T09:55:15Z</time>
      </trkpt>
      <trkpt lat="43.97995" lon="1.98013">
        <ele>233.74</ele>
        <time>2025-10-19T09:55:24Z</time>
      </trkpt>
      <trkpt lat="43.97992" lon="1.97996">
        <ele>232.3</ele>
        <time>2025-10-19T09:55:33Z</time>
      </trkpt>
    </trkseg>
  </trk>
</gpx>